<?xml version="1.0" encoding="UTF-8" standalone="no" ?>
<gpx xmlns="http://www.topografix.com/GPX/1/1" xmlns:xsi="http://www.w3.org/2001/XMLSchema-instance" xsi:schemaLocation="http://www.topografix.com/GPX/1/1 http://www.topografix.com/GPX/1/1/gpx.xsd" version="1.1" creator="VisuGPX - https://www.visugpx.com">
  <metadata>
    <name>Phare de Chassiron</name>
    <desc><![CDATA[Boucle au départ du port de Saint Denis d'Oléron.]]></desc>
  </metadata>
  <trk>
    <name><![CDATA[01-JUIN-17 11:57:05]]></name>
    <trkseg>
      <trkpt lat="46.04031" lon="-1.37989">
        <ele>8.31</ele>
        <time>2017-06-01T07:27:13Z</time>
      </trkpt>
      <trkpt lat="46.04031" lon="-1.3799">
        <ele>8.31</ele>
        <time>2017-06-01T07:27:30Z</time>
      </trkpt>
      <trkpt lat="46.04032" lon="-1.37995">
        <ele>8.31</ele>
        <time>2017-06-01T07:27:42Z</time>
      </trkpt>
      <trkpt lat="46.04035" lon="-1.38001">
        <ele>8.79</ele>
        <time>2017-06-01T07:27:48Z</time>
      </trkpt>
      <trkpt lat="46.04051" lon="-1.38027">
        <ele>8.31</ele>
        <time>2017-06-01T07:28:06Z</time>
      </trkpt>
      <trkpt lat="46.04065" lon="-1.38048">
        <ele>6.87</ele>
        <time>2017-06-01T07:28:21Z</time>
      </trkpt>
      <trkpt lat="46.04066" lon="-1.38048">
        <ele>6.87</ele>
        <time>2017-06-01T07:28:22Z</time>
      </trkpt>
      <trkpt lat="46.04073" lon="-1.3806">
        <ele>6.87</ele>
        <time>2017-06-01T07:28:32Z</time>
      </trkpt>
      <trkpt lat="46.04072" lon="-1.38066">
        <ele>6.87</ele>
        <time>2017-06-01T07:28:36Z</time>
      </trkpt>
      <trkpt lat="46.0407" lon="-1.38072">
        <ele>7.35</ele>
        <time>2017-06-01T07:28:40Z</time>
      </trkpt>
      <trkpt lat="46.04054" lon="-1.38068">
        <ele>8.31</ele>
        <time>2017-06-01T07:28:52Z</time>
      </trkpt>
      <trkpt lat="46.04048" lon="-1.38073">
        <ele>8.79</ele>
        <time>2017-06-01T07:28:56Z</time>
      </trkpt>
      <trkpt lat="46.04027" lon="-1.38097">
        <ele>11.19</ele>
        <time>2017-06-01T07:29:14Z</time>
      </trkpt>
      <trkpt lat="46.04019" lon="-1.38105">
        <ele>11.67</ele>
        <time>2017-06-01T07:29:21Z</time>
      </trkpt>
      <trkpt lat="46.04014" lon="-1.38112">
        <ele>11.67</ele>
        <time>2017-06-01T07:29:27Z</time>
      </trkpt>
      <trkpt lat="46.04" lon="-1.38127">
        <ele>12.15</ele>
        <time>2017-06-01T07:29:39Z</time>
      </trkpt>
      <trkpt lat="46.03996" lon="-1.38127">
        <ele>12.15</ele>
        <time>2017-06-01T07:29:42Z</time>
      </trkpt>
      <trkpt lat="46.03982" lon="-1.38105">
        <ele>11.19</ele>
        <time>2017-06-01T07:29:58Z</time>
      </trkpt>
      <trkpt lat="46.03965" lon="-1.38078">
        <ele>9.75</ele>
        <time>2017-06-01T07:30:16Z</time>
      </trkpt>
      <trkpt lat="46.03944" lon="-1.38052">
        <ele>12.15</ele>
        <time>2017-06-01T07:30:35Z</time>
      </trkpt>
      <trkpt lat="46.03917" lon="-1.38034">
        <ele>12.63</ele>
        <time>2017-06-01T07:30:55Z</time>
      </trkpt>
      <trkpt lat="46.03893" lon="-1.38038">
        <ele>11.19</ele>
        <time>2017-06-01T07:31:12Z</time>
      </trkpt>
      <trkpt lat="46.03875" lon="-1.38052">
        <ele>11.67</ele>
        <time>2017-06-01T07:31:28Z</time>
      </trkpt>
      <trkpt lat="46.03857" lon="-1.38078">
        <ele>12.15</ele>
        <time>2017-06-01T07:31:46Z</time>
      </trkpt>
      <trkpt lat="46.03841" lon="-1.38104">
        <ele>12.15</ele>
        <time>2017-06-01T07:32:03Z</time>
      </trkpt>
      <trkpt lat="46.03824" lon="-1.38128">
        <ele>11.67</ele>
        <time>2017-06-01T07:32:20Z</time>
      </trkpt>
      <trkpt lat="46.03809" lon="-1.38156">
        <ele>11.19</ele>
        <time>2017-06-01T07:32:37Z</time>
      </trkpt>
      <trkpt lat="46.03794" lon="-1.38184">
        <ele>12.63</ele>
        <time>2017-06-01T07:32:55Z</time>
      </trkpt>
      <trkpt lat="46.0379" lon="-1.38188">
        <ele>12.63</ele>
        <time>2017-06-01T07:32:58Z</time>
      </trkpt>
      <trkpt lat="46.0379" lon="-1.38198">
        <ele>13.6</ele>
        <time>2017-06-01T07:33:03Z</time>
      </trkpt>
      <trkpt lat="46.03797" lon="-1.38206">
        <ele>14.08</ele>
        <time>2017-06-01T07:33:10Z</time>
      </trkpt>
      <trkpt lat="46.03818" lon="-1.38231">
        <ele>13.6</ele>
        <time>2017-06-01T07:33:29Z</time>
      </trkpt>
      <trkpt lat="46.03839" lon="-1.38261">
        <ele>10.71</ele>
        <time>2017-06-01T07:33:48Z</time>
      </trkpt>
      <trkpt lat="46.03858" lon="-1.38286">
        <ele>9.75</ele>
        <time>2017-06-01T07:34:05Z</time>
      </trkpt>
      <trkpt lat="46.03878" lon="-1.38309">
        <ele>9.75</ele>
        <time>2017-06-01T07:34:22Z</time>
      </trkpt>
      <trkpt lat="46.039" lon="-1.38335">
        <ele>10.23</ele>
        <time>2017-06-01T07:34:41Z</time>
      </trkpt>
      <trkpt lat="46.03921" lon="-1.38364">
        <ele>8.79</ele>
        <time>2017-06-01T07:35:00Z</time>
      </trkpt>
      <trkpt lat="46.03946" lon="-1.38374">
        <ele>8.79</ele>
        <time>2017-06-01T07:35:18Z</time>
      </trkpt>
      <trkpt lat="46.0397" lon="-1.38387">
        <ele>9.27</ele>
        <time>2017-06-01T07:35:36Z</time>
      </trkpt>
      <trkpt lat="46.0399" lon="-1.38412">
        <ele>7.83</ele>
        <time>2017-06-01T07:35:54Z</time>
      </trkpt>
      <trkpt lat="46.04011" lon="-1.3844">
        <ele>7.83</ele>
        <time>2017-06-01T07:36:12Z</time>
      </trkpt>
      <trkpt lat="46.04025" lon="-1.3846">
        <ele>5.42</ele>
        <time>2017-06-01T07:36:26Z</time>
      </trkpt>
      <trkpt lat="46.04044" lon="-1.38485">
        <ele>4.46</ele>
        <time>2017-06-01T07:36:44Z</time>
      </trkpt>
      <trkpt lat="46.04063" lon="-1.38508">
        <ele>4.46</ele>
        <time>2017-06-01T07:37:01Z</time>
      </trkpt>
      <trkpt lat="46.04085" lon="-1.38531">
        <ele>7.83</ele>
        <time>2017-06-01T07:37:18Z</time>
      </trkpt>
      <trkpt lat="46.0409" lon="-1.38536">
        <ele>8.31</ele>
        <time>2017-06-01T07:37:21Z</time>
      </trkpt>
      <trkpt lat="46.04111" lon="-1.3856">
        <ele>8.31</ele>
        <time>2017-06-01T07:37:38Z</time>
      </trkpt>
      <trkpt lat="46.04135" lon="-1.38582">
        <ele>7.83</ele>
        <time>2017-06-01T07:37:57Z</time>
      </trkpt>
      <trkpt lat="46.04144" lon="-1.38611">
        <ele>8.79</ele>
        <time>2017-06-01T07:38:13Z</time>
      </trkpt>
      <trkpt lat="46.04145" lon="-1.38647">
        <ele>8.31</ele>
        <time>2017-06-01T07:38:30Z</time>
      </trkpt>
      <trkpt lat="46.04146" lon="-1.38665">
        <ele>8.79</ele>
        <time>2017-06-01T07:38:46Z</time>
      </trkpt>
      <trkpt lat="46.04146" lon="-1.38697">
        <ele>9.27</ele>
        <time>2017-06-01T07:39:01Z</time>
      </trkpt>
      <trkpt lat="46.04147" lon="-1.38734">
        <ele>8.31</ele>
        <time>2017-06-01T07:39:19Z</time>
      </trkpt>
      <trkpt lat="46.0415" lon="-1.38768">
        <ele>7.35</ele>
        <time>2017-06-01T07:39:36Z</time>
      </trkpt>
      <trkpt lat="46.04152" lon="-1.38801">
        <ele>8.79</ele>
        <time>2017-06-01T07:39:52Z</time>
      </trkpt>
      <trkpt lat="46.04156" lon="-1.38843">
        <ele>5.42</ele>
        <time>2017-06-01T07:40:10Z</time>
      </trkpt>
      <trkpt lat="46.04161" lon="-1.38876">
        <ele>4.46</ele>
        <time>2017-06-01T07:40:25Z</time>
      </trkpt>
      <trkpt lat="46.04167" lon="-1.38911">
        <ele>3.5</ele>
        <time>2017-06-01T07:40:42Z</time>
      </trkpt>
      <trkpt lat="46.04173" lon="-1.38939">
        <ele>5.91</ele>
        <time>2017-06-01T07:40:57Z</time>
      </trkpt>
      <trkpt lat="46.04185" lon="-1.38973">
        <ele>7.35</ele>
        <time>2017-06-01T07:41:14Z</time>
      </trkpt>
      <trkpt lat="46.04174" lon="-1.38997">
        <ele>7.83</ele>
        <time>2017-06-01T07:41:28Z</time>
      </trkpt>
      <trkpt lat="46.04177" lon="-1.39009">
        <ele>7.35</ele>
        <time>2017-06-01T07:41:35Z</time>
      </trkpt>
      <trkpt lat="46.04188" lon="-1.3904">
        <ele>7.83</ele>
        <time>2017-06-01T07:41:51Z</time>
      </trkpt>
      <trkpt lat="46.04201" lon="-1.3908">
        <ele>7.83</ele>
        <time>2017-06-01T07:42:11Z</time>
      </trkpt>
      <trkpt lat="46.0421" lon="-1.39112">
        <ele>7.83</ele>
        <time>2017-06-01T07:42:27Z</time>
      </trkpt>
      <trkpt lat="46.04221" lon="-1.39146">
        <ele>8.31</ele>
        <time>2017-06-01T07:42:44Z</time>
      </trkpt>
      <trkpt lat="46.04231" lon="-1.39174">
        <ele>8.79</ele>
        <time>2017-06-01T07:42:59Z</time>
      </trkpt>
      <trkpt lat="46.04242" lon="-1.39206">
        <ele>8.79</ele>
        <time>2017-06-01T07:43:16Z</time>
      </trkpt>
      <trkpt lat="46.04251" lon="-1.39237">
        <ele>8.79</ele>
        <time>2017-06-01T07:43:32Z</time>
      </trkpt>
      <trkpt lat="46.04263" lon="-1.39272">
        <ele>8.31</ele>
        <time>2017-06-01T07:43:50Z</time>
      </trkpt>
      <trkpt lat="46.04274" lon="-1.39303">
        <ele>8.31</ele>
        <time>2017-06-01T07:44:06Z</time>
      </trkpt>
      <trkpt lat="46.0429" lon="-1.39308">
        <ele>8.31</ele>
        <time>2017-06-01T07:44:18Z</time>
      </trkpt>
      <trkpt lat="46.04305" lon="-1.39322">
        <ele>8.79</ele>
        <time>2017-06-01T07:44:33Z</time>
      </trkpt>
      <trkpt lat="46.04319" lon="-1.39357">
        <ele>10.71</ele>
        <time>2017-06-01T07:44:52Z</time>
      </trkpt>
      <trkpt lat="46.04329" lon="-1.39388">
        <ele>11.67</ele>
        <time>2017-06-01T07:45:09Z</time>
      </trkpt>
      <trkpt lat="46.04341" lon="-1.39424">
        <ele>11.67</ele>
        <time>2017-06-01T07:45:28Z</time>
      </trkpt>
      <trkpt lat="46.04353" lon="-1.3945">
        <ele>11.67</ele>
        <time>2017-06-01T07:45:42Z</time>
      </trkpt>
      <trkpt lat="46.04365" lon="-1.3948">
        <ele>11.67</ele>
        <time>2017-06-01T07:45:58Z</time>
      </trkpt>
      <trkpt lat="46.04381" lon="-1.395">
        <ele>10.23</ele>
        <time>2017-06-01T07:46:13Z</time>
      </trkpt>
      <trkpt lat="46.04394" lon="-1.39523">
        <ele>7.35</ele>
        <time>2017-06-01T07:46:29Z</time>
      </trkpt>
      <trkpt lat="46.04408" lon="-1.3954">
        <ele>3.5</ele>
        <time>2017-06-01T07:46:42Z</time>
      </trkpt>
      <trkpt lat="46.04416" lon="-1.39565">
        <ele>2.54</ele>
        <time>2017-06-01T07:46:56Z</time>
      </trkpt>
      <trkpt lat="46.04418" lon="-1.39581">
        <ele>2.06</ele>
        <time>2017-06-01T07:47:04Z</time>
      </trkpt>
      <trkpt lat="46.04421" lon="-1.39599">
        <ele>3.02</ele>
        <time>2017-06-01T07:47:14Z</time>
      </trkpt>
      <trkpt lat="46.04427" lon="-1.39626">
        <ele>8.31</ele>
        <time>2017-06-01T07:47:29Z</time>
      </trkpt>
      <trkpt lat="46.04435" lon="-1.39656">
        <ele>11.19</ele>
        <time>2017-06-01T07:47:44Z</time>
      </trkpt>
      <trkpt lat="46.04445" lon="-1.39684">
        <ele>9.75</ele>
        <time>2017-06-01T07:48:00Z</time>
      </trkpt>
      <trkpt lat="46.04448" lon="-1.39713">
        <ele>8.31</ele>
        <time>2017-06-01T07:48:14Z</time>
      </trkpt>
      <trkpt lat="46.04452" lon="-1.39745">
        <ele>6.87</ele>
        <time>2017-06-01T07:48:29Z</time>
      </trkpt>
      <trkpt lat="46.04455" lon="-1.3977">
        <ele>5.91</ele>
        <time>2017-06-01T07:48:41Z</time>
      </trkpt>
      <trkpt lat="46.04459" lon="-1.39806">
        <ele>5.91</ele>
        <time>2017-06-01T07:48:58Z</time>
      </trkpt>
      <trkpt lat="46.04459" lon="-1.39838">
        <ele>8.79</ele>
        <time>2017-06-01T07:49:14Z</time>
      </trkpt>
      <trkpt lat="46.04454" lon="-1.39865">
        <ele>10.71</ele>
        <time>2017-06-01T07:49:29Z</time>
      </trkpt>
      <trkpt lat="46.04444" lon="-1.3988">
        <ele>13.6</ele>
        <time>2017-06-01T07:49:41Z</time>
      </trkpt>
      <trkpt lat="46.04456" lon="-1.39892">
        <ele>11.67</ele>
        <time>2017-06-01T07:49:54Z</time>
      </trkpt>
      <trkpt lat="46.04457" lon="-1.39892">
        <ele>11.67</ele>
        <time>2017-06-01T07:50:13Z</time>
      </trkpt>
      <trkpt lat="46.04456" lon="-1.39892">
        <ele>11.19</ele>
        <time>2017-06-01T07:50:28Z</time>
      </trkpt>
      <trkpt lat="46.04456" lon="-1.39892">
        <ele>10.71</ele>
        <time>2017-06-01T07:50:52Z</time>
      </trkpt>
      <trkpt lat="46.04456" lon="-1.39892">
        <ele>10.23</ele>
        <time>2017-06-01T07:51:20Z</time>
      </trkpt>
      <trkpt lat="46.04456" lon="-1.39892">
        <ele>10.23</ele>
        <time>2017-06-01T07:51:45Z</time>
      </trkpt>
      <trkpt lat="46.04455" lon="-1.39892">
        <ele>10.23</ele>
        <time>2017-06-01T07:52:11Z</time>
      </trkpt>
      <trkpt lat="46.04456" lon="-1.39892">
        <ele>10.23</ele>
        <time>2017-06-01T07:52:27Z</time>
      </trkpt>
      <trkpt lat="46.04456" lon="-1.39892">
        <ele>10.71</ele>
        <time>2017-06-01T07:52:44Z</time>
      </trkpt>
      <trkpt lat="46.04456" lon="-1.39892">
        <ele>10.71</ele>
        <time>2017-06-01T07:53:06Z</time>
      </trkpt>
      <trkpt lat="46.04456" lon="-1.39892">
        <ele>11.19</ele>
        <time>2017-06-01T07:53:20Z</time>
      </trkpt>
      <trkpt lat="46.04455" lon="-1.39891">
        <ele>11.19</ele>
        <time>2017-06-01T07:53:39Z</time>
      </trkpt>
      <trkpt lat="46.04455" lon="-1.39892">
        <ele>11.19</ele>
        <time>2017-06-01T07:53:59Z</time>
      </trkpt>
      <trkpt lat="46.04455" lon="-1.39892">
        <ele>10.71</ele>
        <time>2017-06-01T07:54:14Z</time>
      </trkpt>
      <trkpt lat="46.04455" lon="-1.39894">
        <ele>10.71</ele>
        <time>2017-06-01T07:54:29Z</time>
      </trkpt>
      <trkpt lat="46.04455" lon="-1.39894">
        <ele>10.71</ele>
        <time>2017-06-01T07:54:46Z</time>
      </trkpt>
      <trkpt lat="46.04456" lon="-1.39897">
        <ele>10.71</ele>
        <time>2017-06-01T07:54:58Z</time>
      </trkpt>
      <trkpt lat="46.04455" lon="-1.39898">
        <ele>10.71</ele>
        <time>2017-06-01T07:55:03Z</time>
      </trkpt>
      <trkpt lat="46.04434" lon="-1.39907">
        <ele>11.67</ele>
        <time>2017-06-01T07:55:21Z</time>
      </trkpt>
      <trkpt lat="46.04426" lon="-1.39931">
        <ele>13.12</ele>
        <time>2017-06-01T07:55:35Z</time>
      </trkpt>
      <trkpt lat="46.04422" lon="-1.39943">
        <ele>14.56</ele>
        <time>2017-06-01T07:55:49Z</time>
      </trkpt>
      <trkpt lat="46.04423" lon="-1.39953">
        <ele>14.08</ele>
        <time>2017-06-01T07:56:01Z</time>
      </trkpt>
      <trkpt lat="46.04423" lon="-1.39958">
        <ele>12.63</ele>
        <time>2017-06-01T07:56:15Z</time>
      </trkpt>
      <trkpt lat="46.04422" lon="-1.3996">
        <ele>12.15</ele>
        <time>2017-06-01T07:56:21Z</time>
      </trkpt>
      <trkpt lat="46.04409" lon="-1.39985">
        <ele>11.19</ele>
        <time>2017-06-01T07:56:37Z</time>
      </trkpt>
      <trkpt lat="46.04406" lon="-1.39989">
        <ele>10.71</ele>
        <time>2017-06-01T07:56:50Z</time>
      </trkpt>
      <trkpt lat="46.04403" lon="-1.39992">
        <ele>10.71</ele>
        <time>2017-06-01T07:57:13Z</time>
      </trkpt>
      <trkpt lat="46.04393" lon="-1.4">
        <ele>10.71</ele>
        <time>2017-06-01T07:57:26Z</time>
      </trkpt>
      <trkpt lat="46.04384" lon="-1.40006">
        <ele>11.19</ele>
        <time>2017-06-01T07:57:38Z</time>
      </trkpt>
      <trkpt lat="46.0437" lon="-1.40016">
        <ele>11.19</ele>
        <time>2017-06-01T07:57:52Z</time>
      </trkpt>
      <trkpt lat="46.04355" lon="-1.40029">
        <ele>10.23</ele>
        <time>2017-06-01T07:58:04Z</time>
      </trkpt>
      <trkpt lat="46.04328" lon="-1.40055">
        <ele>10.23</ele>
        <time>2017-06-01T07:58:23Z</time>
      </trkpt>
      <trkpt lat="46.04303" lon="-1.40075">
        <ele>12.63</ele>
        <time>2017-06-01T07:58:41Z</time>
      </trkpt>
      <trkpt lat="46.04273" lon="-1.401">
        <ele>13.6</ele>
        <time>2017-06-01T07:59:01Z</time>
      </trkpt>
      <trkpt lat="46.04254" lon="-1.4012">
        <ele>13.6</ele>
        <time>2017-06-01T07:59:17Z</time>
      </trkpt>
      <trkpt lat="46.04246" lon="-1.40131">
        <ele>13.12</ele>
        <time>2017-06-01T07:59:25Z</time>
      </trkpt>
      <trkpt lat="46.04239" lon="-1.40133">
        <ele>13.12</ele>
        <time>2017-06-01T07:59:39Z</time>
      </trkpt>
      <trkpt lat="46.04239" lon="-1.40133">
        <ele>13.12</ele>
        <time>2017-06-01T07:59:40Z</time>
      </trkpt>
      <trkpt lat="46.04235" lon="-1.40141">
        <ele>13.12</ele>
        <time>2017-06-01T07:59:45Z</time>
      </trkpt>
      <trkpt lat="46.04227" lon="-1.40148">
        <ele>12.63</ele>
        <time>2017-06-01T07:59:53Z</time>
      </trkpt>
      <trkpt lat="46.04213" lon="-1.40169">
        <ele>14.56</ele>
        <time>2017-06-01T08:00:11Z</time>
      </trkpt>
      <trkpt lat="46.04213" lon="-1.40169">
        <ele>14.56</ele>
        <time>2017-06-01T08:00:12Z</time>
      </trkpt>
      <trkpt lat="46.04209" lon="-1.40174">
        <ele>15.52</ele>
        <time>2017-06-01T08:00:25Z</time>
      </trkpt>
      <trkpt lat="46.04198" lon="-1.40188">
        <ele>14.08</ele>
        <time>2017-06-01T08:00:43Z</time>
      </trkpt>
      <trkpt lat="46.04183" lon="-1.40209">
        <ele>14.56</ele>
        <time>2017-06-01T08:00:59Z</time>
      </trkpt>
      <trkpt lat="46.04182" lon="-1.40212">
        <ele>14.56</ele>
        <time>2017-06-01T08:01:01Z</time>
      </trkpt>
      <trkpt lat="46.04192" lon="-1.40238">
        <ele>15.52</ele>
        <time>2017-06-01T08:01:16Z</time>
      </trkpt>
      <trkpt lat="46.04203" lon="-1.40262">
        <ele>16.48</ele>
        <time>2017-06-01T08:01:32Z</time>
      </trkpt>
      <trkpt lat="46.04189" lon="-1.4029">
        <ele>18.88</ele>
        <time>2017-06-01T08:01:51Z</time>
      </trkpt>
      <trkpt lat="46.04176" lon="-1.40319">
        <ele>17.92</ele>
        <time>2017-06-01T08:02:08Z</time>
      </trkpt>
      <trkpt lat="46.04175" lon="-1.40333">
        <ele>16.48</ele>
        <time>2017-06-01T08:02:15Z</time>
      </trkpt>
      <trkpt lat="46.04184" lon="-1.40356">
        <ele>16.48</ele>
        <time>2017-06-01T08:02:28Z</time>
      </trkpt>
      <trkpt lat="46.04197" lon="-1.40381">
        <ele>15.04</ele>
        <time>2017-06-01T08:02:43Z</time>
      </trkpt>
      <trkpt lat="46.04206" lon="-1.40401">
        <ele>14.08</ele>
        <time>2017-06-01T08:02:55Z</time>
      </trkpt>
      <trkpt lat="46.04214" lon="-1.40418">
        <ele>16.48</ele>
        <time>2017-06-01T08:03:06Z</time>
      </trkpt>
      <trkpt lat="46.04223" lon="-1.4044">
        <ele>16.96</ele>
        <time>2017-06-01T08:03:21Z</time>
      </trkpt>
      <trkpt lat="46.0423" lon="-1.4046">
        <ele>16.48</ele>
        <time>2017-06-01T08:03:36Z</time>
      </trkpt>
      <trkpt lat="46.04243" lon="-1.40486">
        <ele>13.6</ele>
        <time>2017-06-01T08:03:52Z</time>
      </trkpt>
      <trkpt lat="46.04256" lon="-1.40504">
        <ele>11.67</ele>
        <time>2017-06-01T08:04:03Z</time>
      </trkpt>
      <trkpt lat="46.04262" lon="-1.40508">
        <ele>11.19</ele>
        <time>2017-06-01T08:04:07Z</time>
      </trkpt>
      <trkpt lat="46.04284" lon="-1.4053">
        <ele>10.23</ele>
        <time>2017-06-01T08:04:25Z</time>
      </trkpt>
      <trkpt lat="46.04307" lon="-1.40556">
        <ele>8.31</ele>
        <time>2017-06-01T08:04:44Z</time>
      </trkpt>
      <trkpt lat="46.04325" lon="-1.40586">
        <ele>9.27</ele>
        <time>2017-06-01T08:05:03Z</time>
      </trkpt>
      <trkpt lat="46.04339" lon="-1.40617">
        <ele>9.27</ele>
        <time>2017-06-01T08:05:21Z</time>
      </trkpt>
      <trkpt lat="46.04351" lon="-1.40652">
        <ele>9.75</ele>
        <time>2017-06-01T08:05:39Z</time>
      </trkpt>
      <trkpt lat="46.04361" lon="-1.40688">
        <ele>8.79</ele>
        <time>2017-06-01T08:05:56Z</time>
      </trkpt>
      <trkpt lat="46.04369" lon="-1.40718">
        <ele>8.79</ele>
        <time>2017-06-01T08:06:12Z</time>
      </trkpt>
      <trkpt lat="46.0438" lon="-1.40744">
        <ele>9.75</ele>
        <time>2017-06-01T08:06:27Z</time>
      </trkpt>
      <trkpt lat="46.04392" lon="-1.4077">
        <ele>10.71</ele>
        <time>2017-06-01T08:06:43Z</time>
      </trkpt>
      <trkpt lat="46.04402" lon="-1.40793">
        <ele>12.63</ele>
        <time>2017-06-01T08:06:58Z</time>
      </trkpt>
      <trkpt lat="46.04419" lon="-1.40788">
        <ele>9.75</ele>
        <time>2017-06-01T08:07:09Z</time>
      </trkpt>
      <trkpt lat="46.04426" lon="-1.40784">
        <ele>9.75</ele>
        <time>2017-06-01T08:07:14Z</time>
      </trkpt>
      <trkpt lat="46.04433" lon="-1.40783">
        <ele>9.75</ele>
        <time>2017-06-01T08:07:19Z</time>
      </trkpt>
      <trkpt lat="46.04456" lon="-1.40772">
        <ele>10.23</ele>
        <time>2017-06-01T08:07:36Z</time>
      </trkpt>
      <trkpt lat="46.04476" lon="-1.40765">
        <ele>9.75</ele>
        <time>2017-06-01T08:07:50Z</time>
      </trkpt>
      <trkpt lat="46.04497" lon="-1.40756">
        <ele>9.75</ele>
        <time>2017-06-01T08:08:04Z</time>
      </trkpt>
      <trkpt lat="46.04512" lon="-1.40747">
        <ele>9.75</ele>
        <time>2017-06-01T08:08:15Z</time>
      </trkpt>
      <trkpt lat="46.04514" lon="-1.40744">
        <ele>9.27</ele>
        <time>2017-06-01T08:08:18Z</time>
      </trkpt>
      <trkpt lat="46.04537" lon="-1.40733">
        <ele>10.23</ele>
        <time>2017-06-01T08:08:34Z</time>
      </trkpt>
      <trkpt lat="46.04559" lon="-1.40723">
        <ele>9.27</ele>
        <time>2017-06-01T08:08:49Z</time>
      </trkpt>
      <trkpt lat="46.04578" lon="-1.40715">
        <ele>8.31</ele>
        <time>2017-06-01T08:09:03Z</time>
      </trkpt>
      <trkpt lat="46.04597" lon="-1.40718">
        <ele>9.75</ele>
        <time>2017-06-01T08:09:17Z</time>
      </trkpt>
      <trkpt lat="46.04605" lon="-1.40729">
        <ele>9.75</ele>
        <time>2017-06-01T08:09:28Z</time>
      </trkpt>
      <trkpt lat="46.04621" lon="-1.40754">
        <ele>9.27</ele>
        <time>2017-06-01T08:09:44Z</time>
      </trkpt>
      <trkpt lat="46.04638" lon="-1.40777">
        <ele>8.79</ele>
        <time>2017-06-01T08:09:59Z</time>
      </trkpt>
      <trkpt lat="46.04651" lon="-1.40801">
        <ele>9.75</ele>
        <time>2017-06-01T08:10:14Z</time>
      </trkpt>
      <trkpt lat="46.04669" lon="-1.40825">
        <ele>9.27</ele>
        <time>2017-06-01T08:10:30Z</time>
      </trkpt>
      <trkpt lat="46.04692" lon="-1.40845">
        <ele>8.79</ele>
        <time>2017-06-01T08:10:47Z</time>
      </trkpt>
      <trkpt lat="46.04714" lon="-1.40868">
        <ele>8.31</ele>
        <time>2017-06-01T08:11:04Z</time>
      </trkpt>
      <trkpt lat="46.04732" lon="-1.40896">
        <ele>7.83</ele>
        <time>2017-06-01T08:11:22Z</time>
      </trkpt>
      <trkpt lat="46.04754" lon="-1.40912">
        <ele>7.83</ele>
        <time>2017-06-01T08:11:38Z</time>
      </trkpt>
      <trkpt lat="46.04764" lon="-1.40918">
        <ele>7.35</ele>
        <time>2017-06-01T08:11:49Z</time>
      </trkpt>
      <trkpt lat="46.04765" lon="-1.40925">
        <ele>7.35</ele>
        <time>2017-06-01T08:12:01Z</time>
      </trkpt>
      <trkpt lat="46.04764" lon="-1.40936">
        <ele>6.87</ele>
        <time>2017-06-01T08:12:15Z</time>
      </trkpt>
      <trkpt lat="46.04765" lon="-1.40941">
        <ele>6.87</ele>
        <time>2017-06-01T08:12:20Z</time>
      </trkpt>
      <trkpt lat="46.04773" lon="-1.40951">
        <ele>6.87</ele>
        <time>2017-06-01T08:12:33Z</time>
      </trkpt>
      <trkpt lat="46.04774" lon="-1.40952">
        <ele>6.87</ele>
        <time>2017-06-01T08:12:46Z</time>
      </trkpt>
      <trkpt lat="46.04774" lon="-1.40953">
        <ele>5.91</ele>
        <time>2017-06-01T08:12:59Z</time>
      </trkpt>
      <trkpt lat="46.04774" lon="-1.40953">
        <ele>5.42</ele>
        <time>2017-06-01T08:13:12Z</time>
      </trkpt>
      <trkpt lat="46.04774" lon="-1.40953">
        <ele>4.94</ele>
        <time>2017-06-01T08:13:26Z</time>
      </trkpt>
      <trkpt lat="46.04773" lon="-1.40955">
        <ele>5.42</ele>
        <time>2017-06-01T08:13:39Z</time>
      </trkpt>
      <trkpt lat="46.04773" lon="-1.40954">
        <ele>5.91</ele>
        <time>2017-06-01T08:13:56Z</time>
      </trkpt>
      <trkpt lat="46.04771" lon="-1.40956">
        <ele>5.42</ele>
        <time>2017-06-01T08:14:18Z</time>
      </trkpt>
      <trkpt lat="46.04768" lon="-1.40961">
        <ele>5.91</ele>
        <time>2017-06-01T08:14:31Z</time>
      </trkpt>
      <trkpt lat="46.04767" lon="-1.40958">
        <ele>6.39</ele>
        <time>2017-06-01T08:14:42Z</time>
      </trkpt>
      <trkpt lat="46.04767" lon="-1.40958">
        <ele>6.39</ele>
        <time>2017-06-01T08:14:55Z</time>
      </trkpt>
      <trkpt lat="46.04768" lon="-1.40963">
        <ele>5.91</ele>
        <time>2017-06-01T08:15:08Z</time>
      </trkpt>
      <trkpt lat="46.04769" lon="-1.4097">
        <ele>6.87</ele>
        <time>2017-06-01T08:15:18Z</time>
      </trkpt>
      <trkpt lat="46.04768" lon="-1.40972">
        <ele>6.87</ele>
        <time>2017-06-01T08:15:20Z</time>
      </trkpt>
      <trkpt lat="46.04769" lon="-1.40975">
        <ele>6.87</ele>
        <time>2017-06-01T08:15:22Z</time>
      </trkpt>
      <trkpt lat="46.04768" lon="-1.40983">
        <ele>6.87</ele>
        <time>2017-06-01T08:15:29Z</time>
      </trkpt>
      <trkpt lat="46.04772" lon="-1.41011">
        <ele>6.39</ele>
        <time>2017-06-01T08:15:44Z</time>
      </trkpt>
      <trkpt lat="46.04781" lon="-1.41033">
        <ele>6.87</ele>
        <time>2017-06-01T08:15:57Z</time>
      </trkpt>
      <trkpt lat="46.04792" lon="-1.41061">
        <ele>7.35</ele>
        <time>2017-06-01T08:16:12Z</time>
      </trkpt>
      <trkpt lat="46.04788" lon="-1.41095">
        <ele>6.39</ele>
        <time>2017-06-01T08:16:28Z</time>
      </trkpt>
      <trkpt lat="46.04783" lon="-1.41131">
        <ele>7.83</ele>
        <time>2017-06-01T08:16:45Z</time>
      </trkpt>
      <trkpt lat="46.04777" lon="-1.41138">
        <ele>7.35</ele>
        <time>2017-06-01T08:16:50Z</time>
      </trkpt>
      <trkpt lat="46.04763" lon="-1.41171">
        <ele>7.35</ele>
        <time>2017-06-01T08:17:08Z</time>
      </trkpt>
      <trkpt lat="46.04746" lon="-1.41197">
        <ele>7.35</ele>
        <time>2017-06-01T08:17:24Z</time>
      </trkpt>
      <trkpt lat="46.04731" lon="-1.41213">
        <ele>6.87</ele>
        <time>2017-06-01T08:17:37Z</time>
      </trkpt>
      <trkpt lat="46.04719" lon="-1.41227">
        <ele>5.42</ele>
        <time>2017-06-01T08:17:50Z</time>
      </trkpt>
      <trkpt lat="46.04705" lon="-1.41224">
        <ele>5.42</ele>
        <time>2017-06-01T08:18:02Z</time>
      </trkpt>
      <trkpt lat="46.04702" lon="-1.41221">
        <ele>6.39</ele>
        <time>2017-06-01T08:18:14Z</time>
      </trkpt>
      <trkpt lat="46.04703" lon="-1.41217">
        <ele>6.87</ele>
        <time>2017-06-01T08:18:25Z</time>
      </trkpt>
      <trkpt lat="46.04703" lon="-1.41214">
        <ele>6.87</ele>
        <time>2017-06-01T08:18:34Z</time>
      </trkpt>
      <trkpt lat="46.04703" lon="-1.41214">
        <ele>7.35</ele>
        <time>2017-06-01T08:18:50Z</time>
      </trkpt>
      <trkpt lat="46.04703" lon="-1.41215">
        <ele>7.35</ele>
        <time>2017-06-01T08:19:02Z</time>
      </trkpt>
      <trkpt lat="46.04703" lon="-1.41217">
        <ele>7.35</ele>
        <time>2017-06-01T08:19:04Z</time>
      </trkpt>
      <trkpt lat="46.04702" lon="-1.41227">
        <ele>7.35</ele>
        <time>2017-06-01T08:19:17Z</time>
      </trkpt>
      <trkpt lat="46.047" lon="-1.41228">
        <ele>7.35</ele>
        <time>2017-06-01T08:19:42Z</time>
      </trkpt>
      <trkpt lat="46.04698" lon="-1.41231">
        <ele>7.83</ele>
        <time>2017-06-01T08:19:53Z</time>
      </trkpt>
      <trkpt lat="46.04699" lon="-1.41226">
        <ele>7.83</ele>
        <time>2017-06-01T08:20:03Z</time>
      </trkpt>
      <trkpt lat="46.047" lon="-1.41224">
        <ele>7.83</ele>
        <time>2017-06-01T08:20:05Z</time>
      </trkpt>
      <trkpt lat="46.04702" lon="-1.41219">
        <ele>7.83</ele>
        <time>2017-06-01T08:20:09Z</time>
      </trkpt>
      <trkpt lat="46.04702" lon="-1.41213">
        <ele>7.83</ele>
        <time>2017-06-01T08:20:22Z</time>
      </trkpt>
      <trkpt lat="46.047" lon="-1.41209">
        <ele>7.83</ele>
        <time>2017-06-01T08:20:34Z</time>
      </trkpt>
      <trkpt lat="46.047" lon="-1.41234">
        <ele>7.83</ele>
        <time>2017-06-01T08:20:49Z</time>
      </trkpt>
      <trkpt lat="46.04697" lon="-1.41246">
        <ele>7.35</ele>
        <time>2017-06-01T08:21:01Z</time>
      </trkpt>
      <trkpt lat="46.04694" lon="-1.41249">
        <ele>6.87</ele>
        <time>2017-06-01T08:21:04Z</time>
      </trkpt>
      <trkpt lat="46.04683" lon="-1.41258">
        <ele>6.39</ele>
        <time>2017-06-01T08:21:17Z</time>
      </trkpt>
      <trkpt lat="46.04677" lon="-1.41263">
        <ele>6.87</ele>
        <time>2017-06-01T08:21:23Z</time>
      </trkpt>
      <trkpt lat="46.04672" lon="-1.41268">
        <ele>6.87</ele>
        <time>2017-06-01T08:21:28Z</time>
      </trkpt>
      <trkpt lat="46.0467" lon="-1.4127">
        <ele>6.87</ele>
        <time>2017-06-01T08:21:30Z</time>
      </trkpt>
      <trkpt lat="46.04668" lon="-1.41275">
        <ele>7.35</ele>
        <time>2017-06-01T08:21:34Z</time>
      </trkpt>
      <trkpt lat="46.04653" lon="-1.41275">
        <ele>6.87</ele>
        <time>2017-06-01T08:21:49Z</time>
      </trkpt>
      <trkpt lat="46.04652" lon="-1.41274">
        <ele>6.87</ele>
        <time>2017-06-01T08:21:53Z</time>
      </trkpt>
      <trkpt lat="46.04641" lon="-1.41261">
        <ele>5.42</ele>
        <time>2017-06-01T08:22:06Z</time>
      </trkpt>
      <trkpt lat="46.04638" lon="-1.41259">
        <ele>4.94</ele>
        <time>2017-06-01T08:22:12Z</time>
      </trkpt>
      <trkpt lat="46.04634" lon="-1.41253">
        <ele>4.94</ele>
        <time>2017-06-01T08:22:16Z</time>
      </trkpt>
      <trkpt lat="46.04618" lon="-1.41224">
        <ele>4.94</ele>
        <time>2017-06-01T08:22:32Z</time>
      </trkpt>
      <trkpt lat="46.046" lon="-1.41199">
        <ele>7.83</ele>
        <time>2017-06-01T08:22:48Z</time>
      </trkpt>
      <trkpt lat="46.04591" lon="-1.41163">
        <ele>8.31</ele>
        <time>2017-06-01T08:23:06Z</time>
      </trkpt>
      <trkpt lat="46.04576" lon="-1.41136">
        <ele>8.31</ele>
        <time>2017-06-01T08:23:21Z</time>
      </trkpt>
      <trkpt lat="46.04562" lon="-1.4111">
        <ele>7.35</ele>
        <time>2017-06-01T08:23:35Z</time>
      </trkpt>
      <trkpt lat="46.04549" lon="-1.41112">
        <ele>7.35</ele>
        <time>2017-06-01T08:23:45Z</time>
      </trkpt>
      <trkpt lat="46.04527" lon="-1.411">
        <ele>7.83</ele>
        <time>2017-06-01T08:24:01Z</time>
      </trkpt>
      <trkpt lat="46.04507" lon="-1.41097">
        <ele>8.79</ele>
        <time>2017-06-01T08:24:15Z</time>
      </trkpt>
      <trkpt lat="46.04498" lon="-1.4109">
        <ele>8.79</ele>
        <time>2017-06-01T08:24:22Z</time>
      </trkpt>
      <trkpt lat="46.04488" lon="-1.41086">
        <ele>9.75</ele>
        <time>2017-06-01T08:24:29Z</time>
      </trkpt>
      <trkpt lat="46.0447" lon="-1.41071">
        <ele>9.27</ele>
        <time>2017-06-01T08:24:43Z</time>
      </trkpt>
      <trkpt lat="46.0445" lon="-1.41081">
        <ele>8.31</ele>
        <time>2017-06-01T08:24:57Z</time>
      </trkpt>
      <trkpt lat="46.04428" lon="-1.41089">
        <ele>6.39</ele>
        <time>2017-06-01T08:25:12Z</time>
      </trkpt>
      <trkpt lat="46.04411" lon="-1.41082">
        <ele>6.87</ele>
        <time>2017-06-01T08:25:26Z</time>
      </trkpt>
      <trkpt lat="46.04387" lon="-1.41077">
        <ele>7.83</ele>
        <time>2017-06-01T08:25:41Z</time>
      </trkpt>
      <trkpt lat="46.04359" lon="-1.41083">
        <ele>9.27</ele>
        <time>2017-06-01T08:25:59Z</time>
      </trkpt>
      <trkpt lat="46.04331" lon="-1.41084">
        <ele>8.31</ele>
        <time>2017-06-01T08:26:16Z</time>
      </trkpt>
      <trkpt lat="46.04325" lon="-1.41083">
        <ele>7.83</ele>
        <time>2017-06-01T08:26:20Z</time>
      </trkpt>
      <trkpt lat="46.04321" lon="-1.41081">
        <ele>7.35</ele>
        <time>2017-06-01T08:26:32Z</time>
      </trkpt>
      <trkpt lat="46.04321" lon="-1.41081">
        <ele>7.83</ele>
        <time>2017-06-01T08:26:55Z</time>
      </trkpt>
      <trkpt lat="46.0429" lon="-1.41077">
        <ele>7.35</ele>
        <time>2017-06-01T08:27:15Z</time>
      </trkpt>
      <trkpt lat="46.04263" lon="-1.41071">
        <ele>7.35</ele>
        <time>2017-06-01T08:27:32Z</time>
      </trkpt>
      <trkpt lat="46.04237" lon="-1.41066">
        <ele>6.87</ele>
        <time>2017-06-01T08:27:48Z</time>
      </trkpt>
      <trkpt lat="46.04205" lon="-1.41064">
        <ele>6.87</ele>
        <time>2017-06-01T08:28:07Z</time>
      </trkpt>
      <trkpt lat="46.04174" lon="-1.41061">
        <ele>5.42</ele>
        <time>2017-06-01T08:28:26Z</time>
      </trkpt>
      <trkpt lat="46.04137" lon="-1.41057">
        <ele>4.94</ele>
        <time>2017-06-01T08:28:48Z</time>
      </trkpt>
      <trkpt lat="46.0411" lon="-1.41054">
        <ele>6.39</ele>
        <time>2017-06-01T08:29:05Z</time>
      </trkpt>
      <trkpt lat="46.04095" lon="-1.41055">
        <ele>6.39</ele>
        <time>2017-06-01T08:29:17Z</time>
      </trkpt>
      <trkpt lat="46.04083" lon="-1.4105">
        <ele>5.91</ele>
        <time>2017-06-01T08:29:33Z</time>
      </trkpt>
      <trkpt lat="46.04088" lon="-1.41048">
        <ele>5.91</ele>
        <time>2017-06-01T08:29:46Z</time>
      </trkpt>
      <trkpt lat="46.04089" lon="-1.41047">
        <ele>5.91</ele>
        <time>2017-06-01T08:30:01Z</time>
      </trkpt>
      <trkpt lat="46.04089" lon="-1.41047">
        <ele>4.46</ele>
        <time>2017-06-01T08:30:39Z</time>
      </trkpt>
      <trkpt lat="46.04089" lon="-1.41048">
        <ele>3.5</ele>
        <time>2017-06-01T08:31:11Z</time>
      </trkpt>
      <trkpt lat="46.04089" lon="-1.41047">
        <ele>3.5</ele>
        <time>2017-06-01T08:31:54Z</time>
      </trkpt>
      <trkpt lat="46.04089" lon="-1.41048">
        <ele>3.5</ele>
        <time>2017-06-01T08:32:31Z</time>
      </trkpt>
      <trkpt lat="46.04089" lon="-1.41048">
        <ele>3.02</ele>
        <time>2017-06-01T08:33:11Z</time>
      </trkpt>
      <trkpt lat="46.04089" lon="-1.41048">
        <ele>3.5</ele>
        <time>2017-06-01T08:33:47Z</time>
      </trkpt>
      <trkpt lat="46.04089" lon="-1.41048">
        <ele>3.02</ele>
        <time>2017-06-01T08:34:26Z</time>
      </trkpt>
      <trkpt lat="46.04089" lon="-1.41048">
        <ele>3.02</ele>
        <time>2017-06-01T08:35:00Z</time>
      </trkpt>
      <trkpt lat="46.04089" lon="-1.41048">
        <ele>3.02</ele>
        <time>2017-06-01T08:35:36Z</time>
      </trkpt>
      <trkpt lat="46.04089" lon="-1.41048">
        <ele>3.5</ele>
        <time>2017-06-01T08:36:17Z</time>
      </trkpt>
      <trkpt lat="46.04089" lon="-1.41048">
        <ele>3.02</ele>
        <time>2017-06-01T08:36:48Z</time>
      </trkpt>
      <trkpt lat="46.04089" lon="-1.41048">
        <ele>3.02</ele>
        <time>2017-06-01T08:37:21Z</time>
      </trkpt>
      <trkpt lat="46.04089" lon="-1.41048">
        <ele>3.02</ele>
        <time>2017-06-01T08:37:50Z</time>
      </trkpt>
      <trkpt lat="46.04089" lon="-1.41048">
        <ele>3.5</ele>
        <time>2017-06-01T08:38:16Z</time>
      </trkpt>
      <trkpt lat="46.04089" lon="-1.41048">
        <ele>3.5</ele>
        <time>2017-06-01T08:38:44Z</time>
      </trkpt>
      <trkpt lat="46.04089" lon="-1.41049">
        <ele>3.5</ele>
        <time>2017-06-01T08:38:55Z</time>
      </trkpt>
      <trkpt lat="46.04089" lon="-1.41049">
        <ele>3.02</ele>
        <time>2017-06-01T08:39:22Z</time>
      </trkpt>
      <trkpt lat="46.04087" lon="-1.41048">
        <ele>3.02</ele>
        <time>2017-06-01T08:39:40Z</time>
      </trkpt>
      <trkpt lat="46.04087" lon="-1.41048">
        <ele>3.02</ele>
        <time>2017-06-01T08:40:01Z</time>
      </trkpt>
      <trkpt lat="46.04086" lon="-1.41048">
        <ele>3.02</ele>
        <time>2017-06-01T08:40:17Z</time>
      </trkpt>
      <trkpt lat="46.04086" lon="-1.41045">
        <ele>2.54</ele>
        <time>2017-06-01T08:40:31Z</time>
      </trkpt>
      <trkpt lat="46.04072" lon="-1.41024">
        <ele>3.02</ele>
        <time>2017-06-01T08:40:45Z</time>
      </trkpt>
      <trkpt lat="46.04066" lon="-1.40999">
        <ele>3.98</ele>
        <time>2017-06-01T08:40:57Z</time>
      </trkpt>
      <trkpt lat="46.04059" lon="-1.40968">
        <ele>3.5</ele>
        <time>2017-06-01T08:41:12Z</time>
      </trkpt>
      <trkpt lat="46.04046" lon="-1.40949">
        <ele>3.5</ele>
        <time>2017-06-01T08:41:24Z</time>
      </trkpt>
      <trkpt lat="46.04022" lon="-1.40949">
        <ele>3.02</ele>
        <time>2017-06-01T08:41:39Z</time>
      </trkpt>
      <trkpt lat="46.03997" lon="-1.40933">
        <ele>3.98</ele>
        <time>2017-06-01T08:41:56Z</time>
      </trkpt>
      <trkpt lat="46.03976" lon="-1.40917">
        <ele>1.1</ele>
        <time>2017-06-01T08:42:12Z</time>
      </trkpt>
      <trkpt lat="46.03954" lon="-1.40913">
        <ele>1.1</ele>
        <time>2017-06-01T08:42:26Z</time>
      </trkpt>
      <trkpt lat="46.03948" lon="-1.40911">
        <ele>1.1</ele>
        <time>2017-06-01T08:42:29Z</time>
      </trkpt>
      <trkpt lat="46.0394" lon="-1.40916">
        <ele>1.1</ele>
        <time>2017-06-01T08:42:34Z</time>
      </trkpt>
      <trkpt lat="46.03911" lon="-1.40915">
        <ele>0.62</ele>
        <time>2017-06-01T08:42:52Z</time>
      </trkpt>
      <trkpt lat="46.03889" lon="-1.4091">
        <ele>0.62</ele>
        <time>2017-06-01T08:43:06Z</time>
      </trkpt>
      <trkpt lat="46.03877" lon="-1.40909">
        <ele>0.62</ele>
        <time>2017-06-01T08:43:14Z</time>
      </trkpt>
      <trkpt lat="46.03846" lon="-1.40901">
        <ele>3.02</ele>
        <time>2017-06-01T08:43:34Z</time>
      </trkpt>
      <trkpt lat="46.03816" lon="-1.40893">
        <ele>4.46</ele>
        <time>2017-06-01T08:43:54Z</time>
      </trkpt>
      <trkpt lat="46.0379" lon="-1.40882">
        <ele>4.46</ele>
        <time>2017-06-01T08:44:11Z</time>
      </trkpt>
      <trkpt lat="46.03766" lon="-1.40874">
        <ele>4.46</ele>
        <time>2017-06-01T08:44:27Z</time>
      </trkpt>
      <trkpt lat="46.03758" lon="-1.40869">
        <ele>3.5</ele>
        <time>2017-06-01T08:44:32Z</time>
      </trkpt>
      <trkpt lat="46.03752" lon="-1.40863">
        <ele>3.5</ele>
        <time>2017-06-01T08:44:37Z</time>
      </trkpt>
      <trkpt lat="46.03724" lon="-1.40848">
        <ele>3.98</ele>
        <time>2017-06-01T08:44:56Z</time>
      </trkpt>
      <trkpt lat="46.03698" lon="-1.40836">
        <ele>3.98</ele>
        <time>2017-06-01T08:45:13Z</time>
      </trkpt>
      <trkpt lat="46.03674" lon="-1.40825">
        <ele>4.46</ele>
        <time>2017-06-01T08:45:29Z</time>
      </trkpt>
      <trkpt lat="46.03647" lon="-1.40813">
        <ele>3.02</ele>
        <time>2017-06-01T08:45:46Z</time>
      </trkpt>
      <trkpt lat="46.03615" lon="-1.40797">
        <ele>3.02</ele>
        <time>2017-06-01T08:46:06Z</time>
      </trkpt>
      <trkpt lat="46.03589" lon="-1.40785">
        <ele>3.02</ele>
        <time>2017-06-01T08:46:23Z</time>
      </trkpt>
      <trkpt lat="46.03565" lon="-1.40775">
        <ele>3.5</ele>
        <time>2017-06-01T08:46:39Z</time>
      </trkpt>
      <trkpt lat="46.03535" lon="-1.40764">
        <ele>5.42</ele>
        <time>2017-06-01T08:46:59Z</time>
      </trkpt>
      <trkpt lat="46.03514" lon="-1.40748">
        <ele>3.98</ele>
        <time>2017-06-01T08:47:14Z</time>
      </trkpt>
      <trkpt lat="46.03488" lon="-1.40739">
        <ele>2.06</ele>
        <time>2017-06-01T08:47:31Z</time>
      </trkpt>
      <trkpt lat="46.03487" lon="-1.40738">
        <ele>2.06</ele>
        <time>2017-06-01T08:47:32Z</time>
      </trkpt>
      <trkpt lat="46.03472" lon="-1.40755">
        <ele>2.06</ele>
        <time>2017-06-01T08:47:44Z</time>
      </trkpt>
      <trkpt lat="46.03445" lon="-1.40741">
        <ele>1.58</ele>
        <time>2017-06-01T08:48:02Z</time>
      </trkpt>
      <trkpt lat="46.03419" lon="-1.40738">
        <ele>3.5</ele>
        <time>2017-06-01T08:48:19Z</time>
      </trkpt>
      <trkpt lat="46.03391" lon="-1.40728">
        <ele>4.46</ele>
        <time>2017-06-01T08:48:37Z</time>
      </trkpt>
      <trkpt lat="46.03366" lon="-1.40721">
        <ele>5.42</ele>
        <time>2017-06-01T08:48:54Z</time>
      </trkpt>
      <trkpt lat="46.03343" lon="-1.40717">
        <ele>5.42</ele>
        <time>2017-06-01T08:49:08Z</time>
      </trkpt>
      <trkpt lat="46.0332" lon="-1.40721">
        <ele>5.42</ele>
        <time>2017-06-01T08:49:23Z</time>
      </trkpt>
      <trkpt lat="46.03297" lon="-1.40722">
        <ele>4.46</ele>
        <time>2017-06-01T08:49:38Z</time>
      </trkpt>
      <trkpt lat="46.0327" lon="-1.40711">
        <ele>4.94</ele>
        <time>2017-06-01T08:49:56Z</time>
      </trkpt>
      <trkpt lat="46.03243" lon="-1.40701">
        <ele>3.98</ele>
        <time>2017-06-01T08:50:13Z</time>
      </trkpt>
      <trkpt lat="46.03216" lon="-1.40691">
        <ele>2.54</ele>
        <time>2017-06-01T08:50:30Z</time>
      </trkpt>
      <trkpt lat="46.03191" lon="-1.40683">
        <ele>2.06</ele>
        <time>2017-06-01T08:50:46Z</time>
      </trkpt>
      <trkpt lat="46.03164" lon="-1.40675">
        <ele>2.06</ele>
        <time>2017-06-01T08:51:04Z</time>
      </trkpt>
      <trkpt lat="46.03136" lon="-1.40666">
        <ele>2.54</ele>
        <time>2017-06-01T08:51:21Z</time>
      </trkpt>
      <trkpt lat="46.03128" lon="-1.40664">
        <ele>2.54</ele>
        <time>2017-06-01T08:51:27Z</time>
      </trkpt>
      <trkpt lat="46.03121" lon="-1.40657">
        <ele>1.58</ele>
        <time>2017-06-01T08:51:32Z</time>
      </trkpt>
      <trkpt lat="46.03117" lon="-1.40651">
        <ele>2.06</ele>
        <time>2017-06-01T08:51:36Z</time>
      </trkpt>
      <trkpt lat="46.03106" lon="-1.40649">
        <ele>3.02</ele>
        <time>2017-06-01T08:51:44Z</time>
      </trkpt>
      <trkpt lat="46.0308" lon="-1.40639">
        <ele>2.06</ele>
        <time>2017-06-01T08:52:01Z</time>
      </trkpt>
      <trkpt lat="46.03056" lon="-1.40626">
        <ele>2.06</ele>
        <time>2017-06-01T08:52:17Z</time>
      </trkpt>
      <trkpt lat="46.03037" lon="-1.40611">
        <ele>1.1</ele>
        <time>2017-06-01T08:52:31Z</time>
      </trkpt>
      <trkpt lat="46.03017" lon="-1.40588">
        <ele>1.58</ele>
        <time>2017-06-01T08:52:48Z</time>
      </trkpt>
      <trkpt lat="46.02987" lon="-1.40583">
        <ele>3.02</ele>
        <time>2017-06-01T08:53:08Z</time>
      </trkpt>
      <trkpt lat="46.0296" lon="-1.40576">
        <ele>2.54</ele>
        <time>2017-06-01T08:53:25Z</time>
      </trkpt>
      <trkpt lat="46.02936" lon="-1.40575">
        <ele>3.5</ele>
        <time>2017-06-01T08:53:41Z</time>
      </trkpt>
      <trkpt lat="46.02909" lon="-1.40559">
        <ele>1.1</ele>
        <time>2017-06-01T08:53:58Z</time>
      </trkpt>
      <trkpt lat="46.02882" lon="-1.40553">
        <ele>1.1</ele>
        <time>2017-06-01T08:54:15Z</time>
      </trkpt>
      <trkpt lat="46.02856" lon="-1.40529">
        <ele>3.02</ele>
        <time>2017-06-01T08:54:34Z</time>
      </trkpt>
      <trkpt lat="46.02842" lon="-1.40508">
        <ele>2.54</ele>
        <time>2017-06-01T08:54:48Z</time>
      </trkpt>
      <trkpt lat="46.02823" lon="-1.4048">
        <ele>0.14</ele>
        <time>2017-06-01T08:55:05Z</time>
      </trkpt>
      <trkpt lat="46.02805" lon="-1.40458">
        <ele>3.98</ele>
        <time>2017-06-01T08:55:21Z</time>
      </trkpt>
      <trkpt lat="46.02787" lon="-1.40436">
        <ele>4.46</ele>
        <time>2017-06-01T08:55:36Z</time>
      </trkpt>
      <trkpt lat="46.02765" lon="-1.40445">
        <ele>3.98</ele>
        <time>2017-06-01T08:55:51Z</time>
      </trkpt>
      <trkpt lat="46.02756" lon="-1.40448">
        <ele>3.98</ele>
        <time>2017-06-01T08:55:57Z</time>
      </trkpt>
      <trkpt lat="46.0275" lon="-1.40444">
        <ele>3.5</ele>
        <time>2017-06-01T08:56:01Z</time>
      </trkpt>
      <trkpt lat="46.02725" lon="-1.40432">
        <ele>3.02</ele>
        <time>2017-06-01T08:56:17Z</time>
      </trkpt>
      <trkpt lat="46.02703" lon="-1.40426">
        <ele>1.58</ele>
        <time>2017-06-01T08:56:32Z</time>
      </trkpt>
      <trkpt lat="46.02691" lon="-1.40419">
        <ele>0.62</ele>
        <time>2017-06-01T08:56:40Z</time>
      </trkpt>
      <trkpt lat="46.02672" lon="-1.4041">
        <ele>1.58</ele>
        <time>2017-06-01T08:56:55Z</time>
      </trkpt>
      <trkpt lat="46.02646" lon="-1.40396">
        <ele>3.02</ele>
        <time>2017-06-01T08:57:12Z</time>
      </trkpt>
      <trkpt lat="46.02622" lon="-1.40376">
        <ele>4.46</ele>
        <time>2017-06-01T08:57:29Z</time>
      </trkpt>
      <trkpt lat="46.02599" lon="-1.40362">
        <ele>3.98</ele>
        <time>2017-06-01T08:57:45Z</time>
      </trkpt>
      <trkpt lat="46.02594" lon="-1.40358">
        <ele>4.46</ele>
        <time>2017-06-01T08:57:48Z</time>
      </trkpt>
      <trkpt lat="46.02589" lon="-1.40349">
        <ele>3.98</ele>
        <time>2017-06-01T08:57:54Z</time>
      </trkpt>
      <trkpt lat="46.02585" lon="-1.40346">
        <ele>4.46</ele>
        <time>2017-06-01T08:57:57Z</time>
      </trkpt>
      <trkpt lat="46.02573" lon="-1.40333">
        <ele>6.87</ele>
        <time>2017-06-01T08:58:10Z</time>
      </trkpt>
      <trkpt lat="46.02555" lon="-1.40311">
        <ele>5.91</ele>
        <time>2017-06-01T08:58:25Z</time>
      </trkpt>
      <trkpt lat="46.02539" lon="-1.40287">
        <ele>4.46</ele>
        <time>2017-06-01T08:58:41Z</time>
      </trkpt>
      <trkpt lat="46.02519" lon="-1.40268">
        <ele>4.94</ele>
        <time>2017-06-01T08:58:57Z</time>
      </trkpt>
      <trkpt lat="46.02514" lon="-1.40268">
        <ele>4.94</ele>
        <time>2017-06-01T08:59:12Z</time>
      </trkpt>
      <trkpt lat="46.02514" lon="-1.40267">
        <ele>5.42</ele>
        <time>2017-06-01T08:59:33Z</time>
      </trkpt>
      <trkpt lat="46.02515" lon="-1.40267">
        <ele>4.94</ele>
        <time>2017-06-01T08:59:54Z</time>
      </trkpt>
      <trkpt lat="46.02514" lon="-1.40268">
        <ele>4.94</ele>
        <time>2017-06-01T09:00:10Z</time>
      </trkpt>
      <trkpt lat="46.02515" lon="-1.40268">
        <ele>4.94</ele>
        <time>2017-06-01T09:00:25Z</time>
      </trkpt>
      <trkpt lat="46.02514" lon="-1.40268">
        <ele>4.46</ele>
        <time>2017-06-01T09:00:52Z</time>
      </trkpt>
      <trkpt lat="46.02514" lon="-1.40268">
        <ele>4.46</ele>
        <time>2017-06-01T09:01:11Z</time>
      </trkpt>
      <trkpt lat="46.02514" lon="-1.40268">
        <ele>4.94</ele>
        <time>2017-06-01T09:01:21Z</time>
      </trkpt>
      <trkpt lat="46.02514" lon="-1.40268">
        <ele>4.94</ele>
        <time>2017-06-01T09:01:41Z</time>
      </trkpt>
      <trkpt lat="46.02514" lon="-1.40268">
        <ele>4.94</ele>
        <time>2017-06-01T09:02:00Z</time>
      </trkpt>
      <trkpt lat="46.02514" lon="-1.40268">
        <ele>4.46</ele>
        <time>2017-06-01T09:02:27Z</time>
      </trkpt>
      <trkpt lat="46.02514" lon="-1.40268">
        <ele>4.46</ele>
        <time>2017-06-01T09:02:41Z</time>
      </trkpt>
      <trkpt lat="46.02509" lon="-1.40267">
        <ele>4.46</ele>
        <time>2017-06-01T09:02:54Z</time>
      </trkpt>
      <trkpt lat="46.02484" lon="-1.40265">
        <ele>4.46</ele>
        <time>2017-06-01T09:03:11Z</time>
      </trkpt>
      <trkpt lat="46.02465" lon="-1.40274">
        <ele>3.98</ele>
        <time>2017-06-01T09:03:26Z</time>
      </trkpt>
      <trkpt lat="46.02464" lon="-1.40275">
        <ele>4.46</ele>
        <time>2017-06-01T09:03:28Z</time>
      </trkpt>
      <trkpt lat="46.02478" lon="-1.40265">
        <ele>5.91</ele>
        <time>2017-06-01T09:03:42Z</time>
      </trkpt>
      <trkpt lat="46.0248" lon="-1.40263">
        <ele>5.91</ele>
        <time>2017-06-01T09:03:45Z</time>
      </trkpt>
      <trkpt lat="46.02475" lon="-1.40249">
        <ele>7.35</ele>
        <time>2017-06-01T09:03:58Z</time>
      </trkpt>
      <trkpt lat="46.02474" lon="-1.4025">
        <ele>7.35</ele>
        <time>2017-06-01T09:04:04Z</time>
      </trkpt>
      <trkpt lat="46.02466" lon="-1.40275">
        <ele>7.83</ele>
        <time>2017-06-01T09:04:20Z</time>
      </trkpt>
      <trkpt lat="46.02457" lon="-1.40281">
        <ele>9.27</ele>
        <time>2017-06-01T09:04:31Z</time>
      </trkpt>
      <trkpt lat="46.02444" lon="-1.40278">
        <ele>8.79</ele>
        <time>2017-06-01T09:04:46Z</time>
      </trkpt>
      <trkpt lat="46.02451" lon="-1.4028">
        <ele>8.31</ele>
        <time>2017-06-01T09:04:58Z</time>
      </trkpt>
      <trkpt lat="46.02455" lon="-1.40281">
        <ele>7.83</ele>
        <time>2017-06-01T09:05:12Z</time>
      </trkpt>
      <trkpt lat="46.0246" lon="-1.40282">
        <ele>7.83</ele>
        <time>2017-06-01T09:05:25Z</time>
      </trkpt>
      <trkpt lat="46.02468" lon="-1.40272">
        <ele>6.39</ele>
        <time>2017-06-01T09:05:37Z</time>
      </trkpt>
      <trkpt lat="46.02487" lon="-1.40267">
        <ele>5.42</ele>
        <time>2017-06-01T09:05:54Z</time>
      </trkpt>
      <trkpt lat="46.02489" lon="-1.40268">
        <ele>4.94</ele>
        <time>2017-06-01T09:05:56Z</time>
      </trkpt>
      <trkpt lat="46.02496" lon="-1.40268">
        <ele>4.94</ele>
        <time>2017-06-01T09:06:01Z</time>
      </trkpt>
      <trkpt lat="46.02518" lon="-1.40261">
        <ele>3.98</ele>
        <time>2017-06-01T09:06:17Z</time>
      </trkpt>
      <trkpt lat="46.02527" lon="-1.40245">
        <ele>4.46</ele>
        <time>2017-06-01T09:06:28Z</time>
      </trkpt>
      <trkpt lat="46.02519" lon="-1.40234">
        <ele>4.46</ele>
        <time>2017-06-01T09:06:36Z</time>
      </trkpt>
      <trkpt lat="46.02503" lon="-1.40215">
        <ele>6.39</ele>
        <time>2017-06-01T09:06:51Z</time>
      </trkpt>
      <trkpt lat="46.0249" lon="-1.40197">
        <ele>6.87</ele>
        <time>2017-06-01T09:07:04Z</time>
      </trkpt>
      <trkpt lat="46.02479" lon="-1.40182">
        <ele>9.27</ele>
        <time>2017-06-01T09:07:15Z</time>
      </trkpt>
      <trkpt lat="46.02476" lon="-1.40176">
        <ele>9.27</ele>
        <time>2017-06-01T09:07:18Z</time>
      </trkpt>
      <trkpt lat="46.02458" lon="-1.40169">
        <ele>5.91</ele>
        <time>2017-06-01T09:07:31Z</time>
      </trkpt>
      <trkpt lat="46.02453" lon="-1.40178">
        <ele>6.39</ele>
        <time>2017-06-01T09:07:38Z</time>
      </trkpt>
      <trkpt lat="46.02443" lon="-1.40206">
        <ele>9.75</ele>
        <time>2017-06-01T09:07:54Z</time>
      </trkpt>
      <trkpt lat="46.02429" lon="-1.40232">
        <ele>11.19</ele>
        <time>2017-06-01T09:08:08Z</time>
      </trkpt>
      <trkpt lat="46.02409" lon="-1.40249">
        <ele>8.79</ele>
        <time>2017-06-01T09:08:22Z</time>
      </trkpt>
      <trkpt lat="46.0239" lon="-1.40238">
        <ele>8.31</ele>
        <time>2017-06-01T09:08:36Z</time>
      </trkpt>
      <trkpt lat="46.0239" lon="-1.40224">
        <ele>7.35</ele>
        <time>2017-06-01T09:08:43Z</time>
      </trkpt>
      <trkpt lat="46.02405" lon="-1.40195">
        <ele>5.42</ele>
        <time>2017-06-01T09:09:00Z</time>
      </trkpt>
      <trkpt lat="46.02417" lon="-1.40167">
        <ele>6.39</ele>
        <time>2017-06-01T09:09:17Z</time>
      </trkpt>
      <trkpt lat="46.02431" lon="-1.40142">
        <ele>7.35</ele>
        <time>2017-06-01T09:09:34Z</time>
      </trkpt>
      <trkpt lat="46.02431" lon="-1.40135">
        <ele>7.35</ele>
        <time>2017-06-01T09:09:38Z</time>
      </trkpt>
      <trkpt lat="46.02428" lon="-1.40099">
        <ele>6.87</ele>
        <time>2017-06-01T09:09:55Z</time>
      </trkpt>
      <trkpt lat="46.02416" lon="-1.4008">
        <ele>6.87</ele>
        <time>2017-06-01T09:10:07Z</time>
      </trkpt>
      <trkpt lat="46.02404" lon="-1.40062">
        <ele>6.87</ele>
        <time>2017-06-01T09:10:22Z</time>
      </trkpt>
      <trkpt lat="46.02403" lon="-1.40061">
        <ele>5.91</ele>
        <time>2017-06-01T09:10:38Z</time>
      </trkpt>
      <trkpt lat="46.02403" lon="-1.40061">
        <ele>5.91</ele>
        <time>2017-06-01T09:10:39Z</time>
      </trkpt>
      <trkpt lat="46.02406" lon="-1.40056">
        <ele>5.42</ele>
        <time>2017-06-01T09:10:43Z</time>
      </trkpt>
      <trkpt lat="46.02404" lon="-1.40048">
        <ele>5.42</ele>
        <time>2017-06-01T09:10:48Z</time>
      </trkpt>
      <trkpt lat="46.024" lon="-1.40026">
        <ele>3.98</ele>
        <time>2017-06-01T09:11:01Z</time>
      </trkpt>
      <trkpt lat="46.02392" lon="-1.40014">
        <ele>3.98</ele>
        <time>2017-06-01T09:11:15Z</time>
      </trkpt>
      <trkpt lat="46.02392" lon="-1.40015">
        <ele>3.5</ele>
        <time>2017-06-01T09:11:36Z</time>
      </trkpt>
      <trkpt lat="46.02392" lon="-1.40013">
        <ele>3.98</ele>
        <time>2017-06-01T09:11:51Z</time>
      </trkpt>
      <trkpt lat="46.02392" lon="-1.40012">
        <ele>3.98</ele>
        <time>2017-06-01T09:12:02Z</time>
      </trkpt>
      <trkpt lat="46.02393" lon="-1.4001">
        <ele>3.98</ele>
        <time>2017-06-01T09:12:14Z</time>
      </trkpt>
      <trkpt lat="46.02394" lon="-1.40009">
        <ele>3.98</ele>
        <time>2017-06-01T09:12:38Z</time>
      </trkpt>
      <trkpt lat="46.02396" lon="-1.40006">
        <ele>3.5</ele>
        <time>2017-06-01T09:12:50Z</time>
      </trkpt>
      <trkpt lat="46.02401" lon="-1.39998">
        <ele>3.02</ele>
        <time>2017-06-01T09:12:56Z</time>
      </trkpt>
      <trkpt lat="46.02418" lon="-1.39974">
        <ele>3.98</ele>
        <time>2017-06-01T09:13:12Z</time>
      </trkpt>
      <trkpt lat="46.02434" lon="-1.39947">
        <ele>3.02</ele>
        <time>2017-06-01T09:13:28Z</time>
      </trkpt>
      <trkpt lat="46.02449" lon="-1.39926">
        <ele>2.54</ele>
        <time>2017-06-01T09:13:43Z</time>
      </trkpt>
      <trkpt lat="46.02468" lon="-1.399">
        <ele>3.5</ele>
        <time>2017-06-01T09:14:00Z</time>
      </trkpt>
      <trkpt lat="46.02482" lon="-1.3988">
        <ele>2.54</ele>
        <time>2017-06-01T09:14:13Z</time>
      </trkpt>
      <trkpt lat="46.02482" lon="-1.39878">
        <ele>2.54</ele>
        <time>2017-06-01T09:14:14Z</time>
      </trkpt>
      <trkpt lat="46.02478" lon="-1.39867">
        <ele>3.02</ele>
        <time>2017-06-01T09:14:20Z</time>
      </trkpt>
      <trkpt lat="46.02486" lon="-1.39859">
        <ele>2.54</ele>
        <time>2017-06-01T09:14:27Z</time>
      </trkpt>
      <trkpt lat="46.02509" lon="-1.39852">
        <ele>2.54</ele>
        <time>2017-06-01T09:14:43Z</time>
      </trkpt>
      <trkpt lat="46.02529" lon="-1.39834">
        <ele>3.98</ele>
        <time>2017-06-01T09:14:59Z</time>
      </trkpt>
      <trkpt lat="46.0255" lon="-1.39818">
        <ele>4.94</ele>
        <time>2017-06-01T09:15:15Z</time>
      </trkpt>
      <trkpt lat="46.02572" lon="-1.398">
        <ele>5.91</ele>
        <time>2017-06-01T09:15:31Z</time>
      </trkpt>
      <trkpt lat="46.02594" lon="-1.39781">
        <ele>6.39</ele>
        <time>2017-06-01T09:15:49Z</time>
      </trkpt>
      <trkpt lat="46.02612" lon="-1.39766">
        <ele>6.87</ele>
        <time>2017-06-01T09:16:02Z</time>
      </trkpt>
      <trkpt lat="46.02633" lon="-1.3975">
        <ele>7.35</ele>
        <time>2017-06-01T09:16:18Z</time>
      </trkpt>
      <trkpt lat="46.0265" lon="-1.39732">
        <ele>6.39</ele>
        <time>2017-06-01T09:16:33Z</time>
      </trkpt>
      <trkpt lat="46.02671" lon="-1.39715">
        <ele>6.87</ele>
        <time>2017-06-01T09:16:48Z</time>
      </trkpt>
      <trkpt lat="46.02688" lon="-1.39699">
        <ele>7.35</ele>
        <time>2017-06-01T09:17:02Z</time>
      </trkpt>
      <trkpt lat="46.02708" lon="-1.39683">
        <ele>6.87</ele>
        <time>2017-06-01T09:17:17Z</time>
      </trkpt>
      <trkpt lat="46.02727" lon="-1.39668">
        <ele>5.91</ele>
        <time>2017-06-01T09:17:32Z</time>
      </trkpt>
      <trkpt lat="46.02732" lon="-1.39669">
        <ele>5.91</ele>
        <time>2017-06-01T09:17:44Z</time>
      </trkpt>
      <trkpt lat="46.02749" lon="-1.39692">
        <ele>5.42</ele>
        <time>2017-06-01T09:18:01Z</time>
      </trkpt>
      <trkpt lat="46.02764" lon="-1.39705">
        <ele>4.94</ele>
        <time>2017-06-01T09:18:16Z</time>
      </trkpt>
      <trkpt lat="46.02764" lon="-1.39704">
        <ele>4.46</ele>
        <time>2017-06-01T09:18:35Z</time>
      </trkpt>
      <trkpt lat="46.02783" lon="-1.39687">
        <ele>5.42</ele>
        <time>2017-06-01T09:18:51Z</time>
      </trkpt>
      <trkpt lat="46.0281" lon="-1.3967">
        <ele>5.91</ele>
        <time>2017-06-01T09:19:10Z</time>
      </trkpt>
      <trkpt lat="46.0284" lon="-1.39647">
        <ele>6.39</ele>
        <time>2017-06-01T09:19:32Z</time>
      </trkpt>
      <trkpt lat="46.02862" lon="-1.39632">
        <ele>6.87</ele>
        <time>2017-06-01T09:19:48Z</time>
      </trkpt>
      <trkpt lat="46.02882" lon="-1.39618">
        <ele>6.87</ele>
        <time>2017-06-01T09:20:03Z</time>
      </trkpt>
      <trkpt lat="46.02904" lon="-1.39602">
        <ele>5.91</ele>
        <time>2017-06-01T09:20:20Z</time>
      </trkpt>
      <trkpt lat="46.02924" lon="-1.39587">
        <ele>6.39</ele>
        <time>2017-06-01T09:20:36Z</time>
      </trkpt>
      <trkpt lat="46.02949" lon="-1.39569">
        <ele>6.39</ele>
        <time>2017-06-01T09:20:55Z</time>
      </trkpt>
      <trkpt lat="46.02974" lon="-1.39558">
        <ele>6.39</ele>
        <time>2017-06-01T09:21:12Z</time>
      </trkpt>
      <trkpt lat="46.02998" lon="-1.39552">
        <ele>5.91</ele>
        <time>2017-06-01T09:21:28Z</time>
      </trkpt>
      <trkpt lat="46.03" lon="-1.39551">
        <ele>5.91</ele>
        <time>2017-06-01T09:21:30Z</time>
      </trkpt>
      <trkpt lat="46.03002" lon="-1.3955">
        <ele>6.39</ele>
        <time>2017-06-01T09:21:43Z</time>
      </trkpt>
      <trkpt lat="46.03002" lon="-1.3955">
        <ele>6.39</ele>
        <time>2017-06-01T09:22:02Z</time>
      </trkpt>
      <trkpt lat="46.03002" lon="-1.3955">
        <ele>6.87</ele>
        <time>2017-06-01T09:22:21Z</time>
      </trkpt>
      <trkpt lat="46.03002" lon="-1.39549">
        <ele>6.87</ele>
        <time>2017-06-01T09:22:37Z</time>
      </trkpt>
      <trkpt lat="46.03002" lon="-1.39549">
        <ele>6.87</ele>
        <time>2017-06-01T09:22:58Z</time>
      </trkpt>
      <trkpt lat="46.03002" lon="-1.39549">
        <ele>6.39</ele>
        <time>2017-06-01T09:23:24Z</time>
      </trkpt>
      <trkpt lat="46.03002" lon="-1.39549">
        <ele>5.91</ele>
        <time>2017-06-01T09:23:49Z</time>
      </trkpt>
      <trkpt lat="46.03002" lon="-1.39549">
        <ele>5.91</ele>
        <time>2017-06-01T09:24:03Z</time>
      </trkpt>
      <trkpt lat="46.03002" lon="-1.39548">
        <ele>5.91</ele>
        <time>2017-06-01T09:24:31Z</time>
      </trkpt>
      <trkpt lat="46.03002" lon="-1.39548">
        <ele>5.91</ele>
        <time>2017-06-01T09:24:57Z</time>
      </trkpt>
      <trkpt lat="46.03003" lon="-1.39547">
        <ele>6.39</ele>
        <time>2017-06-01T09:25:16Z</time>
      </trkpt>
      <trkpt lat="46.03015" lon="-1.39532">
        <ele>7.83</ele>
        <time>2017-06-01T09:25:29Z</time>
      </trkpt>
      <trkpt lat="46.03019" lon="-1.39526">
        <ele>7.83</ele>
        <time>2017-06-01T09:25:33Z</time>
      </trkpt>
      <trkpt lat="46.03023" lon="-1.39522">
        <ele>7.83</ele>
        <time>2017-06-01T09:25:37Z</time>
      </trkpt>
      <trkpt lat="46.03044" lon="-1.39496">
        <ele>8.31</ele>
        <time>2017-06-01T09:25:55Z</time>
      </trkpt>
      <trkpt lat="46.03062" lon="-1.39461">
        <ele>8.79</ele>
        <time>2017-06-01T09:26:14Z</time>
      </trkpt>
      <trkpt lat="46.03078" lon="-1.39422">
        <ele>7.83</ele>
        <time>2017-06-01T09:26:34Z</time>
      </trkpt>
      <trkpt lat="46.03095" lon="-1.3939">
        <ele>7.83</ele>
        <time>2017-06-01T09:26:52Z</time>
      </trkpt>
      <trkpt lat="46.03121" lon="-1.39357">
        <ele>7.83</ele>
        <time>2017-06-01T09:27:14Z</time>
      </trkpt>
      <trkpt lat="46.03147" lon="-1.39327">
        <ele>8.79</ele>
        <time>2017-06-01T09:27:35Z</time>
      </trkpt>
      <trkpt lat="46.03173" lon="-1.39297">
        <ele>8.79</ele>
        <time>2017-06-01T09:27:56Z</time>
      </trkpt>
      <trkpt lat="46.03192" lon="-1.39272">
        <ele>9.27</ele>
        <time>2017-06-01T09:28:14Z</time>
      </trkpt>
      <trkpt lat="46.03207" lon="-1.39256">
        <ele>9.27</ele>
        <time>2017-06-01T09:28:27Z</time>
      </trkpt>
      <trkpt lat="46.03231" lon="-1.39238">
        <ele>12.63</ele>
        <time>2017-06-01T09:28:43Z</time>
      </trkpt>
      <trkpt lat="46.03256" lon="-1.39215">
        <ele>10.23</ele>
        <time>2017-06-01T09:29:01Z</time>
      </trkpt>
      <trkpt lat="46.03273" lon="-1.39182">
        <ele>9.27</ele>
        <time>2017-06-01T09:29:19Z</time>
      </trkpt>
      <trkpt lat="46.03279" lon="-1.39146">
        <ele>7.35</ele>
        <time>2017-06-01T09:29:35Z</time>
      </trkpt>
      <trkpt lat="46.03281" lon="-1.39133">
        <ele>6.87</ele>
        <time>2017-06-01T09:29:41Z</time>
      </trkpt>
      <trkpt lat="46.03296" lon="-1.39104">
        <ele>5.91</ele>
        <time>2017-06-01T09:29:59Z</time>
      </trkpt>
      <trkpt lat="46.03298" lon="-1.39075">
        <ele>5.91</ele>
        <time>2017-06-01T09:30:14Z</time>
      </trkpt>
      <trkpt lat="46.03287" lon="-1.39036">
        <ele>8.31</ele>
        <time>2017-06-01T09:30:33Z</time>
      </trkpt>
      <trkpt lat="46.03277" lon="-1.39">
        <ele>10.71</ele>
        <time>2017-06-01T09:30:51Z</time>
      </trkpt>
      <trkpt lat="46.03276" lon="-1.38993">
        <ele>10.71</ele>
        <time>2017-06-01T09:30:55Z</time>
      </trkpt>
      <trkpt lat="46.03294" lon="-1.38971">
        <ele>9.75</ele>
        <time>2017-06-01T09:31:11Z</time>
      </trkpt>
      <trkpt lat="46.03315" lon="-1.38948">
        <ele>10.71</ele>
        <time>2017-06-01T09:31:28Z</time>
      </trkpt>
      <trkpt lat="46.03336" lon="-1.38929">
        <ele>11.19</ele>
        <time>2017-06-01T09:31:45Z</time>
      </trkpt>
      <trkpt lat="46.03354" lon="-1.38911">
        <ele>11.67</ele>
        <time>2017-06-01T09:32:00Z</time>
      </trkpt>
      <trkpt lat="46.03363" lon="-1.38904">
        <ele>12.15</ele>
        <time>2017-06-01T09:32:08Z</time>
      </trkpt>
      <trkpt lat="46.03363" lon="-1.389">
        <ele>11.67</ele>
        <time>2017-06-01T09:32:20Z</time>
      </trkpt>
      <trkpt lat="46.0336" lon="-1.38901">
        <ele>10.71</ele>
        <time>2017-06-01T09:32:32Z</time>
      </trkpt>
      <trkpt lat="46.03362" lon="-1.3888">
        <ele>9.27</ele>
        <time>2017-06-01T09:32:48Z</time>
      </trkpt>
      <trkpt lat="46.03359" lon="-1.38876">
        <ele>9.27</ele>
        <time>2017-06-01T09:32:57Z</time>
      </trkpt>
      <trkpt lat="46.03344" lon="-1.38892">
        <ele>10.23</ele>
        <time>2017-06-01T09:33:13Z</time>
      </trkpt>
      <trkpt lat="46.03324" lon="-1.38909">
        <ele>9.75</ele>
        <time>2017-06-01T09:33:29Z</time>
      </trkpt>
      <trkpt lat="46.03299" lon="-1.38931">
        <ele>9.27</ele>
        <time>2017-06-01T09:33:48Z</time>
      </trkpt>
      <trkpt lat="46.03281" lon="-1.38948">
        <ele>9.27</ele>
        <time>2017-06-01T09:34:03Z</time>
      </trkpt>
      <trkpt lat="46.03273" lon="-1.38949">
        <ele>9.27</ele>
        <time>2017-06-01T09:34:11Z</time>
      </trkpt>
      <trkpt lat="46.03276" lon="-1.3894">
        <ele>9.75</ele>
        <time>2017-06-01T09:34:17Z</time>
      </trkpt>
      <trkpt lat="46.03298" lon="-1.38917">
        <ele>11.19</ele>
        <time>2017-06-01T09:34:35Z</time>
      </trkpt>
      <trkpt lat="46.03317" lon="-1.38897">
        <ele>9.75</ele>
        <time>2017-06-01T09:34:51Z</time>
      </trkpt>
      <trkpt lat="46.03338" lon="-1.38881">
        <ele>8.79</ele>
        <time>2017-06-01T09:35:07Z</time>
      </trkpt>
      <trkpt lat="46.0335" lon="-1.38858">
        <ele>9.75</ele>
        <time>2017-06-01T09:35:22Z</time>
      </trkpt>
      <trkpt lat="46.03355" lon="-1.38824">
        <ele>7.83</ele>
        <time>2017-06-01T09:35:37Z</time>
      </trkpt>
      <trkpt lat="46.03366" lon="-1.38792">
        <ele>7.83</ele>
        <time>2017-06-01T09:35:54Z</time>
      </trkpt>
      <trkpt lat="46.03384" lon="-1.38772">
        <ele>9.75</ele>
        <time>2017-06-01T09:36:11Z</time>
      </trkpt>
      <trkpt lat="46.03394" lon="-1.38755">
        <ele>9.27</ele>
        <time>2017-06-01T09:36:21Z</time>
      </trkpt>
      <trkpt lat="46.03398" lon="-1.3875">
        <ele>8.79</ele>
        <time>2017-06-01T09:36:25Z</time>
      </trkpt>
      <trkpt lat="46.03415" lon="-1.38724">
        <ele>8.31</ele>
        <time>2017-06-01T09:36:41Z</time>
      </trkpt>
      <trkpt lat="46.0342" lon="-1.38691">
        <ele>6.39</ele>
        <time>2017-06-01T09:36:56Z</time>
      </trkpt>
      <trkpt lat="46.03419" lon="-1.38656">
        <ele>5.91</ele>
        <time>2017-06-01T09:37:12Z</time>
      </trkpt>
      <trkpt lat="46.03421" lon="-1.3862">
        <ele>5.91</ele>
        <time>2017-06-01T09:37:28Z</time>
      </trkpt>
      <trkpt lat="46.03431" lon="-1.3859">
        <ele>7.83</ele>
        <time>2017-06-01T09:37:44Z</time>
      </trkpt>
      <trkpt lat="46.03437" lon="-1.38583">
        <ele>8.79</ele>
        <time>2017-06-01T09:37:59Z</time>
      </trkpt>
      <trkpt lat="46.0344" lon="-1.38577">
        <ele>8.79</ele>
        <time>2017-06-01T09:38:09Z</time>
      </trkpt>
      <trkpt lat="46.03455" lon="-1.3856">
        <ele>10.71</ele>
        <time>2017-06-01T09:38:23Z</time>
      </trkpt>
      <trkpt lat="46.03466" lon="-1.38536">
        <ele>11.67</ele>
        <time>2017-06-01T09:38:36Z</time>
      </trkpt>
      <trkpt lat="46.03472" lon="-1.38502">
        <ele>10.71</ele>
        <time>2017-06-01T09:38:52Z</time>
      </trkpt>
      <trkpt lat="46.03472" lon="-1.38486">
        <ele>13.6</ele>
        <time>2017-06-01T09:39:01Z</time>
      </trkpt>
      <trkpt lat="46.03477" lon="-1.38456">
        <ele>16</ele>
        <time>2017-06-01T09:39:16Z</time>
      </trkpt>
      <trkpt lat="46.03478" lon="-1.38432">
        <ele>15.52</ele>
        <time>2017-06-01T09:39:27Z</time>
      </trkpt>
      <trkpt lat="46.03474" lon="-1.384">
        <ele>14.56</ele>
        <time>2017-06-01T09:39:42Z</time>
      </trkpt>
      <trkpt lat="46.03467" lon="-1.38378">
        <ele>15.52</ele>
        <time>2017-06-01T09:39:54Z</time>
      </trkpt>
      <trkpt lat="46.03461" lon="-1.38353">
        <ele>14.08</ele>
        <time>2017-06-01T09:40:07Z</time>
      </trkpt>
      <trkpt lat="46.03462" lon="-1.38346">
        <ele>13.6</ele>
        <time>2017-06-01T09:40:10Z</time>
      </trkpt>
      <trkpt lat="46.03479" lon="-1.38323">
        <ele>12.63</ele>
        <time>2017-06-01T09:40:25Z</time>
      </trkpt>
      <trkpt lat="46.03483" lon="-1.38309">
        <ele>13.12</ele>
        <time>2017-06-01T09:40:35Z</time>
      </trkpt>
      <trkpt lat="46.03484" lon="-1.38298">
        <ele>10.71</ele>
        <time>2017-06-01T09:40:46Z</time>
      </trkpt>
      <trkpt lat="46.03483" lon="-1.38289">
        <ele>10.23</ele>
        <time>2017-06-01T09:41:01Z</time>
      </trkpt>
      <trkpt lat="46.03484" lon="-1.38287">
        <ele>10.23</ele>
        <time>2017-06-01T09:41:17Z</time>
      </trkpt>
      <trkpt lat="46.03486" lon="-1.38282">
        <ele>12.15</ele>
        <time>2017-06-01T09:41:28Z</time>
      </trkpt>
      <trkpt lat="46.03485" lon="-1.38282">
        <ele>12.15</ele>
        <time>2017-06-01T09:41:35Z</time>
      </trkpt>
      <trkpt lat="46.03484" lon="-1.38286">
        <ele>11.67</ele>
        <time>2017-06-01T09:41:42Z</time>
      </trkpt>
      <trkpt lat="46.03482" lon="-1.38289">
        <ele>12.15</ele>
        <time>2017-06-01T09:41:45Z</time>
      </trkpt>
      <trkpt lat="46.03481" lon="-1.38289">
        <ele>12.63</ele>
        <time>2017-06-01T09:41:56Z</time>
      </trkpt>
      <trkpt lat="46.03481" lon="-1.38289">
        <ele>12.15</ele>
        <time>2017-06-01T09:41:58Z</time>
      </trkpt>
      <trkpt lat="46.03488" lon="-1.38276">
        <ele>11.19</ele>
        <time>2017-06-01T09:42:12Z</time>
      </trkpt>
      <trkpt lat="46.03487" lon="-1.3828">
        <ele>10.23</ele>
        <time>2017-06-01T09:42:26Z</time>
      </trkpt>
      <trkpt lat="46.03485" lon="-1.38283">
        <ele>10.23</ele>
        <time>2017-06-01T09:42:33Z</time>
      </trkpt>
      <trkpt lat="46.03481" lon="-1.38289">
        <ele>12.15</ele>
        <time>2017-06-01T09:42:39Z</time>
      </trkpt>
      <trkpt lat="46.03483" lon="-1.38305">
        <ele>15.52</ele>
        <time>2017-06-01T09:42:49Z</time>
      </trkpt>
      <trkpt lat="46.03497" lon="-1.38315">
        <ele>16.48</ele>
        <time>2017-06-01T09:43:03Z</time>
      </trkpt>
      <trkpt lat="46.03501" lon="-1.38319">
        <ele>15.52</ele>
        <time>2017-06-01T09:43:07Z</time>
      </trkpt>
      <trkpt lat="46.03511" lon="-1.3833">
        <ele>18.4</ele>
        <time>2017-06-01T09:43:20Z</time>
      </trkpt>
      <trkpt lat="46.03535" lon="-1.38313">
        <ele>18.88</ele>
        <time>2017-06-01T09:43:38Z</time>
      </trkpt>
      <trkpt lat="46.03541" lon="-1.38309">
        <ele>17.44</ele>
        <time>2017-06-01T09:43:41Z</time>
      </trkpt>
      <trkpt lat="46.03545" lon="-1.38305">
        <ele>16.96</ele>
        <time>2017-06-01T09:43:45Z</time>
      </trkpt>
      <trkpt lat="46.03546" lon="-1.38303">
        <ele>16.96</ele>
        <time>2017-06-01T09:43:47Z</time>
      </trkpt>
      <trkpt lat="46.03551" lon="-1.38297">
        <ele>16.96</ele>
        <time>2017-06-01T09:43:51Z</time>
      </trkpt>
      <trkpt lat="46.03573" lon="-1.3828">
        <ele>16.96</ele>
        <time>2017-06-01T09:44:08Z</time>
      </trkpt>
      <trkpt lat="46.03584" lon="-1.38271">
        <ele>16</ele>
        <time>2017-06-01T09:44:16Z</time>
      </trkpt>
      <trkpt lat="46.03588" lon="-1.38259">
        <ele>17.44</ele>
        <time>2017-06-01T09:44:29Z</time>
      </trkpt>
      <trkpt lat="46.03588" lon="-1.38259">
        <ele>17.44</ele>
        <time>2017-06-01T09:44:30Z</time>
      </trkpt>
      <trkpt lat="46.03578" lon="-1.38255">
        <ele>16.48</ele>
        <time>2017-06-01T09:44:40Z</time>
      </trkpt>
      <trkpt lat="46.03561" lon="-1.3824">
        <ele>15.04</ele>
        <time>2017-06-01T09:44:55Z</time>
      </trkpt>
      <trkpt lat="46.03548" lon="-1.38212">
        <ele>14.56</ele>
        <time>2017-06-01T09:45:11Z</time>
      </trkpt>
      <trkpt lat="46.03546" lon="-1.38212">
        <ele>14.08</ele>
        <time>2017-06-01T09:45:14Z</time>
      </trkpt>
      <trkpt lat="46.03554" lon="-1.3823">
        <ele>14.08</ele>
        <time>2017-06-01T09:45:30Z</time>
      </trkpt>
      <trkpt lat="46.03554" lon="-1.3823">
        <ele>14.56</ele>
        <time>2017-06-01T09:45:42Z</time>
      </trkpt>
      <trkpt lat="46.03553" lon="-1.38229">
        <ele>14.08</ele>
        <time>2017-06-01T09:45:52Z</time>
      </trkpt>
      <trkpt lat="46.03544" lon="-1.38206">
        <ele>13.6</ele>
        <time>2017-06-01T09:46:08Z</time>
      </trkpt>
      <trkpt lat="46.03533" lon="-1.38177">
        <ele>13.12</ele>
        <time>2017-06-01T09:46:23Z</time>
      </trkpt>
      <trkpt lat="46.03541" lon="-1.38156">
        <ele>10.23</ele>
        <time>2017-06-01T09:46:37Z</time>
      </trkpt>
      <trkpt lat="46.03559" lon="-1.38142">
        <ele>11.67</ele>
        <time>2017-06-01T09:46:52Z</time>
      </trkpt>
      <trkpt lat="46.03577" lon="-1.38128">
        <ele>13.6</ele>
        <time>2017-06-01T09:47:07Z</time>
      </trkpt>
      <trkpt lat="46.036" lon="-1.38112">
        <ele>14.08</ele>
        <time>2017-06-01T09:47:23Z</time>
      </trkpt>
      <trkpt lat="46.03614" lon="-1.38087">
        <ele>12.15</ele>
        <time>2017-06-01T09:47:37Z</time>
      </trkpt>
      <trkpt lat="46.03614" lon="-1.38074">
        <ele>11.19</ele>
        <time>2017-06-01T09:47:50Z</time>
      </trkpt>
      <trkpt lat="46.03622" lon="-1.38073">
        <ele>10.71</ele>
        <time>2017-06-01T09:48:03Z</time>
      </trkpt>
      <trkpt lat="46.03621" lon="-1.38073">
        <ele>9.75</ele>
        <time>2017-06-01T09:48:27Z</time>
      </trkpt>
      <trkpt lat="46.0362" lon="-1.38076">
        <ele>10.23</ele>
        <time>2017-06-01T09:48:46Z</time>
      </trkpt>
      <trkpt lat="46.03625" lon="-1.38084">
        <ele>9.75</ele>
        <time>2017-06-01T09:48:52Z</time>
      </trkpt>
      <trkpt lat="46.03629" lon="-1.38089">
        <ele>10.23</ele>
        <time>2017-06-01T09:48:56Z</time>
      </trkpt>
      <trkpt lat="46.03644" lon="-1.38108">
        <ele>9.75</ele>
        <time>2017-06-01T09:49:12Z</time>
      </trkpt>
      <trkpt lat="46.03645" lon="-1.38109">
        <ele>9.75</ele>
        <time>2017-06-01T09:49:13Z</time>
      </trkpt>
      <trkpt lat="46.03656" lon="-1.38133">
        <ele>11.19</ele>
        <time>2017-06-01T09:49:28Z</time>
      </trkpt>
      <trkpt lat="46.03673" lon="-1.38155">
        <ele>12.63</ele>
        <time>2017-06-01T09:49:44Z</time>
      </trkpt>
      <trkpt lat="46.03674" lon="-1.38157">
        <ele>12.63</ele>
        <time>2017-06-01T09:49:45Z</time>
      </trkpt>
      <trkpt lat="46.0368" lon="-1.38164">
        <ele>12.15</ele>
        <time>2017-06-01T09:49:50Z</time>
      </trkpt>
      <trkpt lat="46.03705" lon="-1.38182">
        <ele>11.67</ele>
        <time>2017-06-01T09:50:08Z</time>
      </trkpt>
      <trkpt lat="46.03726" lon="-1.38193">
        <ele>12.63</ele>
        <time>2017-06-01T09:50:24Z</time>
      </trkpt>
      <trkpt lat="46.03751" lon="-1.38198">
        <ele>13.12</ele>
        <time>2017-06-01T09:50:41Z</time>
      </trkpt>
      <trkpt lat="46.03775" lon="-1.38196">
        <ele>13.6</ele>
        <time>2017-06-01T09:50:57Z</time>
      </trkpt>
      <trkpt lat="46.03794" lon="-1.38178">
        <ele>15.04</ele>
        <time>2017-06-01T09:51:13Z</time>
      </trkpt>
      <trkpt lat="46.03805" lon="-1.38161">
        <ele>14.56</ele>
        <time>2017-06-01T09:51:26Z</time>
      </trkpt>
      <trkpt lat="46.03822" lon="-1.38136">
        <ele>15.04</ele>
        <time>2017-06-01T09:51:43Z</time>
      </trkpt>
      <trkpt lat="46.03838" lon="-1.38108">
        <ele>15.04</ele>
        <time>2017-06-01T09:52:01Z</time>
      </trkpt>
      <trkpt lat="46.03855" lon="-1.38079">
        <ele>15.04</ele>
        <time>2017-06-01T09:52:19Z</time>
      </trkpt>
      <trkpt lat="46.03867" lon="-1.3806">
        <ele>13.12</ele>
        <time>2017-06-01T09:52:31Z</time>
      </trkpt>
      <trkpt lat="46.03869" lon="-1.38056">
        <ele>13.12</ele>
        <time>2017-06-01T09:52:34Z</time>
      </trkpt>
      <trkpt lat="46.03888" lon="-1.38041">
        <ele>13.12</ele>
        <time>2017-06-01T09:52:49Z</time>
      </trkpt>
      <trkpt lat="46.03907" lon="-1.38035">
        <ele>11.67</ele>
        <time>2017-06-01T09:53:02Z</time>
      </trkpt>
      <trkpt lat="46.03929" lon="-1.3804">
        <ele>11.19</ele>
        <time>2017-06-01T09:53:17Z</time>
      </trkpt>
      <trkpt lat="46.03949" lon="-1.38057">
        <ele>10.23</ele>
        <time>2017-06-01T09:53:32Z</time>
      </trkpt>
      <trkpt lat="46.03968" lon="-1.38082">
        <ele>8.31</ele>
        <time>2017-06-01T09:53:49Z</time>
      </trkpt>
      <trkpt lat="46.03984" lon="-1.38108">
        <ele>8.31</ele>
        <time>2017-06-01T09:54:06Z</time>
      </trkpt>
      <trkpt lat="46.03997" lon="-1.38127">
        <ele>7.83</ele>
        <time>2017-06-01T09:54:19Z</time>
      </trkpt>
      <trkpt lat="46.04016" lon="-1.38109">
        <ele>7.35</ele>
        <time>2017-06-01T09:54:36Z</time>
      </trkpt>
      <trkpt lat="46.04034" lon="-1.38087">
        <ele>6.87</ele>
        <time>2017-06-01T09:54:52Z</time>
      </trkpt>
      <trkpt lat="46.04051" lon="-1.38068">
        <ele>6.39</ele>
        <time>2017-06-01T09:55:07Z</time>
      </trkpt>
      <trkpt lat="46.04056" lon="-1.3807">
        <ele>5.91</ele>
        <time>2017-06-01T09:55:11Z</time>
      </trkpt>
      <trkpt lat="46.04066" lon="-1.38074">
        <ele>5.42</ele>
        <time>2017-06-01T09:55:18Z</time>
      </trkpt>
      <trkpt lat="46.0407" lon="-1.38072">
        <ele>4.46</ele>
        <time>2017-06-01T09:55:21Z</time>
      </trkpt>
      <trkpt lat="46.04072" lon="-1.38067">
        <ele>4.46</ele>
        <time>2017-06-01T09:55:24Z</time>
      </trkpt>
      <trkpt lat="46.0407" lon="-1.3806">
        <ele>3.5</ele>
        <time>2017-06-01T09:55:28Z</time>
      </trkpt>
      <trkpt lat="46.04068" lon="-1.38056">
        <ele>3.02</ele>
        <time>2017-06-01T09:55:31Z</time>
      </trkpt>
      <trkpt lat="46.04069" lon="-1.38045">
        <ele>2.54</ele>
        <time>2017-06-01T09:55:39Z</time>
      </trkpt>
      <trkpt lat="46.04072" lon="-1.38037">
        <ele>3.02</ele>
        <time>2017-06-01T09:55:52Z</time>
      </trkpt>
      <trkpt lat="46.04072" lon="-1.38037">
        <ele>3.02</ele>
        <time>2017-06-01T09:56:06Z</time>
      </trkpt>
      <trkpt lat="46.04072" lon="-1.38037">
        <ele>3.02</ele>
        <time>2017-06-01T09:56:41Z</time>
      </trkpt>
      <trkpt lat="46.04072" lon="-1.38037">
        <ele>3.98</ele>
        <time>2017-06-01T09:56:58Z</time>
      </trkpt>
    </trkseg>
  </trk>
</gpx>